<?xml version="1.0" encoding="UTF-8"?>
<gpx version="1.1" creator="2bulu-scraper" xmlns="http://www.topografix.com/GPX/1/1">
  <metadata><name>内江资中县白云山穿山洞猫儿寨</name><desc>source: 2bulu.com trackId=81250228; exported 2026-09-01T18:02:50.828Z</desc>
    <bounds minlat="29.6501585" minlon="104.7196332" maxlat="29.6885734" maxlon="104.7390134"/>
    <link href="https://www.2bulu.com/track/t-P3vSPoqkbMHp%252FR2KBg5Tzw%253D%253D.htm"><text>2bulu 源页面</text></link>
  </metadata>
  <wpt lat="29.6502674" lon="104.7299908"><ele>494</ele><name>
        </name></wpt>
  <wpt lat="29.6515973" lon="104.7288608"><ele>507</ele><name>
        </name></wpt>
  <wpt lat="29.6557961" lon="104.7274933"><ele>590</ele><name>
        </name></wpt>
  <wpt lat="29.6564251" lon="104.7275732"><ele>545</ele><name>
        </name></wpt>
  <wpt lat="29.657412" lon="104.7260096"><ele>541</ele><name>
        </name></wpt>
  <wpt lat="29.6573581" lon="104.7257928"><ele>541</ele><name>
        </name></wpt>
  <wpt lat="29.656234" lon="104.7238202"><ele>542</ele><name>
        </name></wpt>
  <wpt lat="29.6575549" lon="104.719985"><ele>553</ele><name>
        </name></wpt>
  <wpt lat="29.6594474" lon="104.7212948"><ele>561</ele><name>
        </name></wpt>
  <wpt lat="29.6612884" lon="104.7257012"><ele>530</ele><name>
        </name></wpt>
  <wpt lat="29.6619549" lon="104.725807"><ele>524</ele><name>
        </name></wpt>
  <wpt lat="29.661974" lon="104.7261405"><ele>524</ele><name>
        </name></wpt>
  <wpt lat="29.6644669" lon="104.7289752"><ele>595</ele><name>
        </name></wpt>
  <wpt lat="29.6658009" lon="104.7292497"><ele>598</ele><name>
        </name></wpt>
  <wpt lat="29.666791" lon="104.7291507"><ele>600</ele><name>
        </name></wpt>
  <wpt lat="29.6683921" lon="104.7277863"><ele>633</ele><name>
        </name></wpt>
  <wpt lat="29.6683464" lon="104.7281036"><ele>654</ele><name>
        </name></wpt>
  <wpt lat="29.6682848" lon="104.7283725"><ele>637</ele><name>
        </name></wpt>
  <wpt lat="29.680601" lon="104.7383512"><ele>595</ele><name>
        </name></wpt>
  <wpt lat="29.6815641" lon="104.7384597"><ele>602</ele><name>
        </name></wpt>
  <wpt lat="29.6843236" lon="104.7382869"><ele>643</ele><name>
        </name></wpt>
  <wpt lat="29.6849778" lon="104.737772"><ele>643</ele><name>
        </name></wpt>
  <wpt lat="29.6850583" lon="104.7365834"><ele>652</ele><name>
        </name></wpt>
  <wpt lat="29.6881684" lon="104.73291"><ele>641</ele><name>
        </name></wpt>
  <wpt lat="29.6883051" lon="104.7327424"><ele>623</ele><name>
        </name></wpt>
  <wpt lat="29.6854257" lon="104.7302058"><ele>489</ele><name>
        </name></wpt>
  <wpt lat="29.6838561" lon="104.730858"><ele>487</ele><name>
        </name></wpt>
  <wpt lat="29.6832431" lon="104.730456"><ele>488</ele><name>
        </name></wpt>
  <wpt lat="29.6831989" lon="104.7303314"><ele>526</ele><name>
        </name></wpt>
  <wpt lat="29.6832575" lon="104.7302781"><ele>491</ele><name>
        </name></wpt>
  <wpt lat="29.6840839" lon="104.7293665"><ele>484</ele><name>
        </name></wpt>
  <wpt lat="29.6836279" lon="104.7274424"><ele>486</ele><name>
        </name></wpt>
  <wpt lat="29.6829802" lon="104.7254285"><ele>480</ele><name>
        </name></wpt>
  <wpt lat="29.6832598" lon="104.7253195"><ele>480</ele><name>
        </name></wpt>
  <wpt lat="29.6836472" lon="104.7256241"><ele>534</ele><name>
        </name></wpt>
  <wpt lat="29.6837004" lon="104.7257017"><ele>482</ele><name>
        </name></wpt>
  <trk><name>内江资中县白云山穿山洞猫儿寨</name>
      <trkseg>
        <trkpt lat="29.6501585" lon="104.7303236"><ele>492.38</ele><time>2026-01-30T17:18:29.000Z</time></trkpt>
        <trkpt lat="29.6501875" lon="104.7302111"><ele>492.38</ele><time>2026-01-30T17:18:37.000Z</time></trkpt>
        <trkpt lat="29.6502265" lon="104.730096"><ele>493.7</ele><time>2026-01-30T17:18:47.000Z</time></trkpt>
        <trkpt lat="29.6502674" lon="104.7299908"><ele>494</ele><time>2026-01-30T17:18:55.000Z</time></trkpt>
        <trkpt lat="29.6503159" lon="104.7298964"><ele>494.16</ele><time>2026-01-30T17:19:03.000Z</time></trkpt>
        <trkpt lat="29.6503695" lon="104.7297995"><ele>493.64</ele><time>2026-01-30T17:19:11.000Z</time></trkpt>
        <trkpt lat="29.6504121" lon="104.7296932"><ele>492.83</ele><time>2026-01-30T17:19:19.000Z</time></trkpt>
        <trkpt lat="29.6504536" lon="104.7295752"><ele>492.07</ele><time>2026-01-30T17:19:27.000Z</time></trkpt>
        <trkpt lat="29.6505076" lon="104.7294675"><ele>491.64</ele><time>2026-01-30T17:19:37.000Z</time></trkpt>
        <trkpt lat="29.6505492" lon="104.7293524"><ele>492.15</ele><time>2026-01-30T17:19:45.000Z</time></trkpt>
        <trkpt lat="29.6505799" lon="104.7292364"><ele>494.62</ele><time>2026-01-30T17:19:55.000Z</time></trkpt>
        <trkpt lat="29.6506202" lon="104.7291397"><ele>496.65</ele><time>2026-01-30T17:20:05.000Z</time></trkpt>
        <trkpt lat="29.6506962" lon="104.7290784"><ele>497.47</ele><time>2026-01-30T17:20:17.000Z</time></trkpt>
        <trkpt lat="29.6507822" lon="104.7290081"><ele>500.62</ele><time>2026-01-30T17:20:29.000Z</time></trkpt>
        <trkpt lat="29.6508289" lon="104.7289032"><ele>503.54</ele><time>2026-01-30T17:20:41.000Z</time></trkpt>
        <trkpt lat="29.650885" lon="104.7288082"><ele>502.82</ele><time>2026-01-30T17:20:52.000Z</time></trkpt>
        <trkpt lat="29.6509514" lon="104.7287087"><ele>503.4</ele><time>2026-01-30T17:21:03.000Z</time></trkpt>
        <trkpt lat="29.6509994" lon="104.7286114"><ele>504.29</ele><time>2026-01-30T17:21:13.000Z</time></trkpt>
        <trkpt lat="29.6510544" lon="104.7285063"><ele>505.32</ele><time>2026-01-30T17:21:23.000Z</time></trkpt>
        <trkpt lat="29.6511456" lon="104.7284514"><ele>506.7</ele><time>2026-01-30T17:21:33.000Z</time></trkpt>
        <trkpt lat="29.6512442" lon="104.7284519"><ele>507.88</ele><time>2026-01-30T17:21:51.000Z</time></trkpt>
        <trkpt lat="29.6513136" lon="104.7285342"><ele>509.44</ele><time>2026-01-30T17:22:07.000Z</time></trkpt>
        <trkpt lat="29.6513831" lon="104.7286335"><ele>510.88</ele><time>2026-01-30T17:22:17.000Z</time></trkpt>
        <trkpt lat="29.6514603" lon="104.7287222"><ele>508.13</ele><time>2026-01-30T17:22:29.000Z</time></trkpt>
        <trkpt lat="29.6515342" lon="104.7288064"><ele>507.31</ele><time>2026-01-30T17:22:40.000Z</time></trkpt>
        <trkpt lat="29.6515973" lon="104.7288608"><ele>507.04</ele><time>2026-01-30T17:22:55.000Z</time></trkpt>
        <trkpt lat="29.6516458" lon="104.7289393"><ele>507.19</ele><time>2026-01-30T17:23:09.000Z</time></trkpt>
        <trkpt lat="29.6517067" lon="104.7290128"><ele>507.67</ele><time>2026-01-30T17:23:57.000Z</time></trkpt>
        <trkpt lat="29.6517964" lon="104.7289607"><ele>508.9</ele><time>2026-01-30T17:27:01.000Z</time></trkpt>
        <trkpt lat="29.6518871" lon="104.72893"><ele>509.62</ele><time>2026-01-30T17:27:17.000Z</time></trkpt>
        <trkpt lat="29.6519879" lon="104.7289273"><ele>510.61</ele><time>2026-01-30T17:27:35.000Z</time></trkpt>
        <trkpt lat="29.6520826" lon="104.7289219"><ele>511.35</ele><time>2026-01-30T17:27:49.000Z</time></trkpt>
        <trkpt lat="29.6521839" lon="104.7289255"><ele>511.93</ele><time>2026-01-30T17:28:01.000Z</time></trkpt>
        <trkpt lat="29.652278" lon="104.7289108"><ele>512.88</ele><time>2026-01-30T17:28:22.000Z</time></trkpt>
        <trkpt lat="29.6523728" lon="104.7289131"><ele>514.44</ele><time>2026-01-30T17:28:35.000Z</time></trkpt>
        <trkpt lat="29.6524682" lon="104.7289282"><ele>515.69</ele><time>2026-01-30T17:28:51.000Z</time></trkpt>
        <trkpt lat="29.6525803" lon="104.7289147"><ele>516.43</ele><time>2026-01-30T17:29:03.000Z</time></trkpt>
        <trkpt lat="29.6526773" lon="104.7288864"><ele>517.27</ele><time>2026-01-30T17:29:25.000Z</time></trkpt>
        <trkpt lat="29.6527719" lon="104.7288756"><ele>518.19</ele><time>2026-01-30T17:29:43.000Z</time></trkpt>
        <trkpt lat="29.6528648" lon="104.72886"><ele>518.82</ele><time>2026-01-30T17:29:59.000Z</time></trkpt>
        <trkpt lat="29.6529551" lon="104.7288634"><ele>519.55</ele><time>2026-01-30T17:30:17.000Z</time></trkpt>
        <trkpt lat="29.6530403" lon="104.7288371"><ele>520.38</ele><time>2026-01-30T17:30:37.000Z</time></trkpt>
        <trkpt lat="29.6531542" lon="104.7287695"><ele>521.19</ele><time>2026-01-30T17:30:49.000Z</time></trkpt>
        <trkpt lat="29.6532467" lon="104.7287025"><ele>522.44</ele><time>2026-01-30T17:31:01.000Z</time></trkpt>
        <trkpt lat="29.6533452" lon="104.7286405"><ele>523.06</ele><time>2026-01-30T17:31:13.000Z</time></trkpt>
        <trkpt lat="29.6534452" lon="104.728601"><ele>522.76</ele><time>2026-01-30T17:31:23.000Z</time></trkpt>
        <trkpt lat="29.6535414" lon="104.7285862"><ele>521.56</ele><time>2026-01-30T17:31:35.000Z</time></trkpt>
        <trkpt lat="29.6536362" lon="104.7285802"><ele>520.54</ele><time>2026-01-30T17:31:49.000Z</time></trkpt>
        <trkpt lat="29.6537362" lon="104.728566"><ele>519.41</ele><time>2026-01-30T17:32:05.000Z</time></trkpt>
        <trkpt lat="29.6538333" lon="104.7285599"><ele>518.16</ele><time>2026-01-30T17:32:19.000Z</time></trkpt>
        <trkpt lat="29.6539403" lon="104.7285472"><ele>516.64</ele><time>2026-01-30T17:32:31.000Z</time></trkpt>
        <trkpt lat="29.6540419" lon="104.7285304"><ele>515.21</ele><time>2026-01-30T17:32:45.000Z</time></trkpt>
        <trkpt lat="29.6541535" lon="104.7284903"><ele>514.03</ele><time>2026-01-30T17:32:53.000Z</time></trkpt>
        <trkpt lat="29.6542571" lon="104.7284509"><ele>513.21</ele><time>2026-01-30T17:33:07.000Z</time></trkpt>
        <trkpt lat="29.6544557" lon="104.7284355"><ele>512.65</ele><time>2026-01-30T17:33:19.000Z</time></trkpt>
        <trkpt lat="29.6547279" lon="104.7283886"><ele>515.66</ele><time>2026-01-30T17:33:27.000Z</time></trkpt>
        <trkpt lat="29.6548709" lon="104.7283353"><ele>523.67</ele><time>2026-01-30T17:33:37.000Z</time></trkpt>
        <trkpt lat="29.65498" lon="104.7283074"><ele>529.02</ele><time>2026-01-30T17:33:47.000Z</time></trkpt>
        <trkpt lat="29.6550391" lon="104.7282345"><ele>530.6</ele><time>2026-01-30T17:34:01.000Z</time></trkpt>
        <trkpt lat="29.6550705" lon="104.7281338"><ele>532.18</ele><time>2026-01-30T17:34:11.000Z</time></trkpt>
        <trkpt lat="29.6551317" lon="104.7280504"><ele>533.01</ele><time>2026-01-30T17:34:27.000Z</time></trkpt>
        <trkpt lat="29.6552146" lon="104.7279952"><ele>534.06</ele><time>2026-01-30T17:34:35.000Z</time></trkpt>
        <trkpt lat="29.655301" lon="104.7279496"><ele>535.94</ele><time>2026-01-30T17:34:53.000Z</time></trkpt>
        <trkpt lat="29.6553829" lon="104.7278836"><ele>535.56</ele><time>2026-01-30T17:35:11.000Z</time></trkpt>
        <trkpt lat="29.6554502" lon="104.7277958"><ele>535.83</ele><time>2026-01-30T17:35:29.000Z</time></trkpt>
        <trkpt lat="29.655514" lon="104.727711"><ele>535.74</ele><time>2026-01-30T17:35:52.000Z</time></trkpt>
        <trkpt lat="29.6556107" lon="104.7276567"><ele>535.09</ele><time>2026-01-30T17:35:57.000Z</time></trkpt>
        <trkpt lat="29.6556917" lon="104.7275829"><ele>533.91</ele><time>2026-01-30T17:36:07.000Z</time></trkpt>
        <trkpt lat="29.6557613" lon="104.7275014"><ele>534.91</ele><time>2026-01-30T17:37:57.000Z</time></trkpt>
        <trkpt lat="29.6563497" lon="104.7276431"><ele>538.7</ele><time>2026-01-30T17:39:43.000Z</time></trkpt>
        <trkpt lat="29.6564251" lon="104.7275732"><ele>536.88</ele><time>2026-01-30T17:40:01.000Z</time></trkpt>
        <trkpt lat="29.6565189" lon="104.727572"><ele>538.09</ele><time>2026-01-30T17:40:11.000Z</time></trkpt>
        <trkpt lat="29.6566057" lon="104.7276059"><ele>541.53</ele><time>2026-01-30T17:40:19.000Z</time></trkpt>
        <trkpt lat="29.6566868" lon="104.7277009"><ele>545.19</ele><time>2026-01-30T17:40:25.000Z</time></trkpt>
        <trkpt lat="29.656757" lon="104.7277998"><ele>548.76</ele><time>2026-01-30T17:40:31.000Z</time></trkpt>
        <trkpt lat="29.656766" lon="104.7279273"><ele>551.22</ele><time>2026-01-30T17:40:47.000Z</time></trkpt>
        <trkpt lat="29.6568241" lon="104.7279265"><ele>551.06</ele><time>2026-01-30T17:41:17.000Z</time></trkpt>
        <trkpt lat="29.6569099" lon="104.7278725"><ele>547.91</ele><time>2026-01-30T17:41:27.000Z</time></trkpt>
        <trkpt lat="29.6570074" lon="104.7278185"><ele>544.95</ele><time>2026-01-30T17:41:35.000Z</time></trkpt>
        <trkpt lat="29.6570957" lon="104.7277415"><ele>543.75</ele><time>2026-01-30T17:41:40.000Z</time></trkpt>
        <trkpt lat="29.6571671" lon="104.7276322"><ele>543.65</ele><time>2026-01-30T17:41:45.000Z</time></trkpt>
        <trkpt lat="29.6571883" lon="104.7275171"><ele>544.92</ele><time>2026-01-30T17:42:01.000Z</time></trkpt>
        <trkpt lat="29.6572264" lon="104.7274164"><ele>545.54</ele><time>2026-01-30T17:42:27.000Z</time></trkpt>
        <trkpt lat="29.6572969" lon="104.7273483"><ele>545.74</ele><time>2026-01-30T17:42:51.000Z</time></trkpt>
        <trkpt lat="29.6573261" lon="104.7273324"><ele>545.39</ele><time>2026-01-30T17:42:53.000Z</time></trkpt>
        <trkpt lat="29.6574005" lon="104.727313"><ele>545.25</ele><time>2026-01-30T17:43:19.000Z</time></trkpt>
        <trkpt lat="29.6574984" lon="104.727298"><ele>545.53</ele><time>2026-01-30T17:43:33.000Z</time></trkpt>
        <trkpt lat="29.6576038" lon="104.7272695"><ele>545.54</ele><time>2026-01-30T17:43:43.000Z</time></trkpt>
        <trkpt lat="29.6577088" lon="104.7272032"><ele>544.3</ele><time>2026-01-30T17:43:53.000Z</time></trkpt>
        <trkpt lat="29.6577986" lon="104.7271179"><ele>542.24</ele><time>2026-01-30T17:44:05.000Z</time></trkpt>
        <trkpt lat="29.6578653" lon="104.7270324"><ele>540.8</ele><time>2026-01-30T17:44:13.000Z</time></trkpt>
        <trkpt lat="29.6579147" lon="104.7269418"><ele>540.5</ele><time>2026-01-30T17:44:25.000Z</time></trkpt>
        <trkpt lat="29.6579467" lon="104.7268298"><ele>539.64</ele><time>2026-01-30T17:44:41.000Z</time></trkpt>
        <trkpt lat="29.6579668" lon="104.7267069"><ele>538.81</ele><time>2026-01-30T17:44:53.000Z</time></trkpt>
        <trkpt lat="29.6579114" lon="104.7266252"><ele>538.47</ele><time>2026-01-30T17:45:01.000Z</time></trkpt>
        <trkpt lat="29.6578129" lon="104.7265768"><ele>537.43</ele><time>2026-01-30T17:45:11.000Z</time></trkpt>
        <trkpt lat="29.657709" lon="104.7265308"><ele>537.01</ele><time>2026-01-30T17:45:35.000Z</time></trkpt>
        <trkpt lat="29.6576234" lon="104.7264735"><ele>538.27</ele><time>2026-01-30T17:45:45.000Z</time></trkpt>
        <trkpt lat="29.6575382" lon="104.726426"><ele>539.31</ele><time>2026-01-30T17:45:55.000Z</time></trkpt>
        <trkpt lat="29.6574936" lon="104.7263417"><ele>540.05</ele><time>2026-01-30T17:46:05.000Z</time></trkpt>
        <trkpt lat="29.65745" lon="104.7262465"><ele>541.83</ele><time>2026-01-30T17:46:15.000Z</time></trkpt>
        <trkpt lat="29.6574219" lon="104.7261332"><ele>542.45</ele><time>2026-01-30T17:46:25.000Z</time></trkpt>
        <trkpt lat="29.657412" lon="104.7260096"><ele>542.39</ele><time>2026-01-30T17:46:35.000Z</time></trkpt>
        <trkpt lat="29.6574022" lon="104.7258912"><ele>543.25</ele><time>2026-01-30T17:46:55.000Z</time></trkpt>
        <trkpt lat="29.6573581" lon="104.7257928"><ele>543.18</ele><time>2026-01-30T17:47:05.000Z</time></trkpt>
        <trkpt lat="29.6572804" lon="104.7257343"><ele>543.82</ele><time>2026-01-30T17:47:23.000Z</time></trkpt>
        <trkpt lat="29.6571836" lon="104.7256734"><ele>543.55</ele><time>2026-01-30T17:47:33.000Z</time></trkpt>
        <trkpt lat="29.65718" lon="104.725568"><ele>543.78</ele><time>2026-01-30T17:47:41.000Z</time></trkpt>
        <trkpt lat="29.6571983" lon="104.7254558"><ele>543</ele><time>2026-01-30T17:47:47.000Z</time></trkpt>
        <trkpt lat="29.6572172" lon="104.7253449"><ele>542.26</ele><time>2026-01-30T17:47:59.000Z</time></trkpt>
        <trkpt lat="29.65721" lon="104.7252345"><ele>540.98</ele><time>2026-01-30T17:48:09.000Z</time></trkpt>
        <trkpt lat="29.6571319" lon="104.7251924"><ele>540</ele><time>2026-01-30T17:48:19.000Z</time></trkpt>
        <trkpt lat="29.6570334" lon="104.7251818"><ele>539.21</ele><time>2026-01-30T17:48:23.000Z</time></trkpt>
        <trkpt lat="29.656924" lon="104.7251755"><ele>538.08</ele><time>2026-01-30T17:49:13.000Z</time></trkpt>
        <trkpt lat="29.6567998" lon="104.7251499"><ele>539.33</ele><time>2026-01-30T17:49:21.000Z</time></trkpt>
        <trkpt lat="29.6567071" lon="104.725095"><ele>540.04</ele><time>2026-01-30T17:49:31.000Z</time></trkpt>
        <trkpt lat="29.6566434" lon="104.7250129"><ele>541.19</ele><time>2026-01-30T17:49:43.000Z</time></trkpt>
        <trkpt lat="29.6565915" lon="104.7249208"><ele>542.26</ele><time>2026-01-30T17:49:57.000Z</time></trkpt>
        <trkpt lat="29.6565831" lon="104.724813"><ele>540.64</ele><time>2026-01-30T17:50:09.000Z</time></trkpt>
        <trkpt lat="29.6565385" lon="104.7247285"><ele>541.29</ele><time>2026-01-30T17:50:23.000Z</time></trkpt>
        <trkpt lat="29.6564558" lon="104.724671"><ele>541.24</ele><time>2026-01-30T17:50:37.000Z</time></trkpt>
        <trkpt lat="29.6563809" lon="104.7246021"><ele>541.34</ele><time>2026-01-30T17:50:47.000Z</time></trkpt>
        <trkpt lat="29.6563681" lon="104.7244928"><ele>541.24</ele><time>2026-01-30T17:50:59.000Z</time></trkpt>
        <trkpt lat="29.6563946" lon="104.7243787"><ele>541.23</ele><time>2026-01-30T17:51:11.000Z</time></trkpt>
        <trkpt lat="29.6564552" lon="104.7242687"><ele>541.12</ele><time>2026-01-30T17:51:39.000Z</time></trkpt>
        <trkpt lat="29.6565364" lon="104.7241822"><ele>540.68</ele><time>2026-01-30T17:51:49.000Z</time></trkpt>
        <trkpt lat="29.65655" lon="104.724086"><ele>541.22</ele><time>2026-01-30T17:52:31.000Z</time></trkpt>
        <trkpt lat="29.6564891" lon="104.724014"><ele>542.56</ele><time>2026-01-30T17:52:59.000Z</time></trkpt>
        <trkpt lat="29.6563966" lon="104.7239677"><ele>542.27</ele><time>2026-01-30T17:53:27.000Z</time></trkpt>
        <trkpt lat="29.6562993" lon="104.723903"><ele>541.19</ele><time>2026-01-30T17:53:43.000Z</time></trkpt>
        <trkpt lat="29.656234" lon="104.7238202"><ele>540.47</ele><time>2026-01-30T17:54:03.000Z</time></trkpt>
        <trkpt lat="29.6561579" lon="104.7237409"><ele>541.74</ele><time>2026-01-30T17:54:35.000Z</time></trkpt>
        <trkpt lat="29.6561016" lon="104.723652"><ele>542.43</ele><time>2026-01-30T17:54:53.000Z</time></trkpt>
        <trkpt lat="29.6560573" lon="104.7235523"><ele>544.19</ele><time>2026-01-30T17:55:05.000Z</time></trkpt>
        <trkpt lat="29.6560084" lon="104.7234504"><ele>544.94</ele><time>2026-01-30T17:55:11.000Z</time></trkpt>
        <trkpt lat="29.6559771" lon="104.7233373"><ele>544.67</ele><time>2026-01-30T17:55:23.000Z</time></trkpt>
        <trkpt lat="29.6559745" lon="104.7232231"><ele>545.17</ele><time>2026-01-30T17:55:35.000Z</time></trkpt>
        <trkpt lat="29.6560327" lon="104.7231192"><ele>544.87</ele><time>2026-01-30T17:55:46.000Z</time></trkpt>
        <trkpt lat="29.6561279" lon="104.7230516"><ele>545.01</ele><time>2026-01-30T17:55:53.000Z</time></trkpt>
        <trkpt lat="29.6562331" lon="104.7229847"><ele>544.34</ele><time>2026-01-30T17:56:04.000Z</time></trkpt>
        <trkpt lat="29.6563248" lon="104.7229237"><ele>544.09</ele><time>2026-01-30T17:56:09.000Z</time></trkpt>
        <trkpt lat="29.6563413" lon="104.7228241"><ele>543.82</ele><time>2026-01-30T17:56:19.000Z</time></trkpt>
        <trkpt lat="29.6563136" lon="104.722714"><ele>543.15</ele><time>2026-01-30T17:56:31.000Z</time></trkpt>
        <trkpt lat="29.6562806" lon="104.7226036"><ele>542.89</ele><time>2026-01-30T17:56:41.000Z</time></trkpt>
        <trkpt lat="29.656229" lon="104.7225051"><ele>543.36</ele><time>2026-01-30T17:56:53.000Z</time></trkpt>
        <trkpt lat="29.6562229" lon="104.7224034"><ele>543.9</ele><time>2026-01-30T17:57:03.000Z</time></trkpt>
        <trkpt lat="29.6562244" lon="104.7222921"><ele>547.31</ele><time>2026-01-30T17:57:11.000Z</time></trkpt>
        <trkpt lat="29.656291" lon="104.7222334"><ele>547.34</ele><time>2026-01-30T17:57:27.000Z</time></trkpt>
        <trkpt lat="29.6563924" lon="104.7222179"><ele>546.49</ele><time>2026-01-30T17:57:55.000Z</time></trkpt>
        <trkpt lat="29.6564881" lon="104.7221769"><ele>547.95</ele><time>2026-01-30T17:58:07.000Z</time></trkpt>
        <trkpt lat="29.6565458" lon="104.7220906"><ele>547.2</ele><time>2026-01-30T17:58:15.000Z</time></trkpt>
        <trkpt lat="29.6565225" lon="104.7219828"><ele>544.89</ele><time>2026-01-30T17:58:33.000Z</time></trkpt>
        <trkpt lat="29.6564836" lon="104.7218673"><ele>542.22</ele><time>2026-01-30T17:58:49.000Z</time></trkpt>
        <trkpt lat="29.6564677" lon="104.721748"><ele>539.82</ele><time>2026-01-30T17:59:01.000Z</time></trkpt>
        <trkpt lat="29.6564538" lon="104.7216286"><ele>537.72</ele><time>2026-01-30T17:59:11.000Z</time></trkpt>
        <trkpt lat="29.6563927" lon="104.7215432"><ele>536.27</ele><time>2026-01-30T17:59:23.000Z</time></trkpt>
        <trkpt lat="29.6562951" lon="104.7215178"><ele>535.65</ele><time>2026-01-30T17:59:40.000Z</time></trkpt>
        <trkpt lat="29.6561923" lon="104.7215441"><ele>535.76</ele><time>2026-01-30T17:59:49.000Z</time></trkpt>
        <trkpt lat="29.6560834" lon="104.7215932"><ele>536.82</ele><time>2026-01-30T18:00:01.000Z</time></trkpt>
        <trkpt lat="29.6559929" lon="104.7216535"><ele>538.53</ele><time>2026-01-30T18:00:16.000Z</time></trkpt>
        <trkpt lat="29.6559037" lon="104.7216548"><ele>539.93</ele><time>2026-01-30T18:00:25.000Z</time></trkpt>
        <trkpt lat="29.6558209" lon="104.7215856"><ele>541.92</ele><time>2026-01-30T18:00:34.000Z</time></trkpt>
        <trkpt lat="29.6557864" lon="104.7214701"><ele>546.05</ele><time>2026-01-30T18:00:41.000Z</time></trkpt>
        <trkpt lat="29.6557832" lon="104.7213469"><ele>549.4</ele><time>2026-01-30T18:00:51.000Z</time></trkpt>
        <trkpt lat="29.6557706" lon="104.7212191"><ele>550.21</ele><time>2026-01-30T18:00:59.000Z</time></trkpt>
        <trkpt lat="29.6557461" lon="104.7210996"><ele>549.52</ele><time>2026-01-30T18:01:11.000Z</time></trkpt>
        <trkpt lat="29.6556974" lon="104.720996"><ele>548.16</ele><time>2026-01-30T18:01:21.000Z</time></trkpt>
        <trkpt lat="29.6556704" lon="104.7208893"><ele>546.72</ele><time>2026-01-30T18:01:31.000Z</time></trkpt>
        <trkpt lat="29.6556057" lon="104.7208049"><ele>544.36</ele><time>2026-01-30T18:01:41.000Z</time></trkpt>
        <trkpt lat="29.6555561" lon="104.720712"><ele>543.31</ele><time>2026-01-30T18:01:51.000Z</time></trkpt>
        <trkpt lat="29.6555239" lon="104.7205939"><ele>542.84</ele><time>2026-01-30T18:02:04.000Z</time></trkpt>
        <trkpt lat="29.6554766" lon="104.7204901"><ele>542.9</ele><time>2026-01-30T18:02:11.000Z</time></trkpt>
        <trkpt lat="29.6554167" lon="104.7203978"><ele>542.69</ele><time>2026-01-30T18:02:22.000Z</time></trkpt>
        <trkpt lat="29.65536" lon="104.7203052"><ele>545.15</ele><time>2026-01-30T18:02:40.000Z</time></trkpt>
        <trkpt lat="29.6553518" lon="104.720189"><ele>547.38</ele><time>2026-01-30T18:02:51.000Z</time></trkpt>
        <trkpt lat="29.655425" lon="104.7201057"><ele>549.23</ele><time>2026-01-30T18:03:07.000Z</time></trkpt>
        <trkpt lat="29.6554733" lon="104.7200093"><ele>548.08</ele><time>2026-01-30T18:03:15.000Z</time></trkpt>
        <trkpt lat="29.6555664" lon="104.7200016"><ele>547.44</ele><time>2026-01-30T18:03:25.000Z</time></trkpt>
        <trkpt lat="29.655667" lon="104.7200228"><ele>548.23</ele><time>2026-01-30T18:03:39.000Z</time></trkpt>
        <trkpt lat="29.6557593" lon="104.7200963"><ele>549.16</ele><time>2026-01-30T18:03:53.000Z</time></trkpt>
        <trkpt lat="29.655831" lon="104.720199"><ele>550.33</ele><time>2026-01-30T18:04:03.000Z</time></trkpt>
        <trkpt lat="29.6558884" lon="104.7202983"><ele>550.93</ele><time>2026-01-30T18:04:13.000Z</time></trkpt>
        <trkpt lat="29.6559522" lon="104.7203878"><ele>550.86</ele><time>2026-01-30T18:04:21.000Z</time></trkpt>
        <trkpt lat="29.656041" lon="104.7204659"><ele>551.11</ele><time>2026-01-30T18:04:31.000Z</time></trkpt>
        <trkpt lat="29.6561237" lon="104.7205372"><ele>550.99</ele><time>2026-01-30T18:04:41.000Z</time></trkpt>
        <trkpt lat="29.6562048" lon="104.7205913"><ele>550.73</ele><time>2026-01-30T18:04:51.000Z</time></trkpt>
        <trkpt lat="29.6563036" lon="104.7206146"><ele>550.3</ele><time>2026-01-30T18:05:04.000Z</time></trkpt>
        <trkpt lat="29.6564072" lon="104.7206192"><ele>549.77</ele><time>2026-01-30T18:05:15.000Z</time></trkpt>
        <trkpt lat="29.6565167" lon="104.7205998"><ele>549.14</ele><time>2026-01-30T18:05:27.000Z</time></trkpt>
        <trkpt lat="29.6566145" lon="104.7206286"><ele>549.15</ele><time>2026-01-30T18:05:37.000Z</time></trkpt>
        <trkpt lat="29.6566998" lon="104.7206895"><ele>546.76</ele><time>2026-01-30T18:05:49.000Z</time></trkpt>
        <trkpt lat="29.6567998" lon="104.7207169"><ele>546.23</ele><time>2026-01-30T18:06:11.000Z</time></trkpt>
        <trkpt lat="29.6568993" lon="104.7207002"><ele>543.23</ele><time>2026-01-30T18:06:25.000Z</time></trkpt>
        <trkpt lat="29.656957" lon="104.7206206"><ele>541.16</ele><time>2026-01-30T18:06:35.000Z</time></trkpt>
        <trkpt lat="29.6569502" lon="104.7205141"><ele>539.38</ele><time>2026-01-30T18:06:52.000Z</time></trkpt>
        <trkpt lat="29.6569297" lon="104.7204012"><ele>537.56</ele><time>2026-01-30T18:07:05.000Z</time></trkpt>
        <trkpt lat="29.6569215" lon="104.7202893"><ele>537.31</ele><time>2026-01-30T18:07:17.000Z</time></trkpt>
        <trkpt lat="29.656923" lon="104.7201702"><ele>537.96</ele><time>2026-01-30T18:07:33.000Z</time></trkpt>
        <trkpt lat="29.6568996" lon="104.7200613"><ele>539.25</ele><time>2026-01-30T18:07:46.000Z</time></trkpt>
        <trkpt lat="29.6568939" lon="104.7199504"><ele>540.04</ele><time>2026-01-30T18:08:01.000Z</time></trkpt>
        <trkpt lat="29.656922" lon="104.7198516"><ele>542.92</ele><time>2026-01-30T18:08:11.000Z</time></trkpt>
        <trkpt lat="29.6569994" lon="104.7197965"><ele>545.45</ele><time>2026-01-30T18:08:23.000Z</time></trkpt>
        <trkpt lat="29.6570974" lon="104.7197688"><ele>547.75</ele><time>2026-01-30T18:08:33.000Z</time></trkpt>
        <trkpt lat="29.6571992" lon="104.7197571"><ele>549.41</ele><time>2026-01-30T18:08:43.000Z</time></trkpt>
        <trkpt lat="29.6572956" lon="104.7197832"><ele>551.2</ele><time>2026-01-30T18:08:53.000Z</time></trkpt>
        <trkpt lat="29.6573896" lon="104.7198427"><ele>552.4</ele><time>2026-01-30T18:09:03.000Z</time></trkpt>
        <trkpt lat="29.6574651" lon="104.7199302"><ele>553.22</ele><time>2026-01-30T18:09:11.000Z</time></trkpt>
        <trkpt lat="29.6575549" lon="104.719985"><ele>553.38</ele><time>2026-01-30T18:09:19.000Z</time></trkpt>
        <trkpt lat="29.6576517" lon="104.7199728"><ele>553.18</ele><time>2026-01-30T18:09:33.000Z</time></trkpt>
        <trkpt lat="29.6577512" lon="104.7199108"><ele>557.06</ele><time>2026-01-30T18:09:41.000Z</time></trkpt>
        <trkpt lat="29.6578517" lon="104.7198333"><ele>558.25</ele><time>2026-01-30T18:09:47.000Z</time></trkpt>
        <trkpt lat="29.6579353" lon="104.7197666"><ele>556.54</ele><time>2026-01-30T18:09:55.000Z</time></trkpt>
        <trkpt lat="29.6580197" lon="104.7197165"><ele>556.28</ele><time>2026-01-30T18:10:03.000Z</time></trkpt>
        <trkpt lat="29.6581176" lon="104.7196716"><ele>555.56</ele><time>2026-01-30T18:10:11.000Z</time></trkpt>
        <trkpt lat="29.6582251" lon="104.7196378"><ele>555</ele><time>2026-01-30T18:10:19.000Z</time></trkpt>
        <trkpt lat="29.6583341" lon="104.7196332"><ele>554.99</ele><time>2026-01-30T18:10:29.000Z</time></trkpt>
        <trkpt lat="29.6584456" lon="104.7196669"><ele>555.76</ele><time>2026-01-30T18:10:39.000Z</time></trkpt>
        <trkpt lat="29.6585322" lon="104.7197275"><ele>557.42</ele><time>2026-01-30T18:10:47.000Z</time></trkpt>
        <trkpt lat="29.6585924" lon="104.7198209"><ele>558.82</ele><time>2026-01-30T18:10:59.000Z</time></trkpt>
        <trkpt lat="29.6585925" lon="104.7199341"><ele>560.1</ele><time>2026-01-30T18:11:09.000Z</time></trkpt>
        <trkpt lat="29.6585683" lon="104.7200463"><ele>561.46</ele><time>2026-01-30T18:11:19.000Z</time></trkpt>
        <trkpt lat="29.6585309" lon="104.7201778"><ele>562.4</ele><time>2026-01-30T18:11:27.000Z</time></trkpt>
        <trkpt lat="29.6585124" lon="104.7203004"><ele>562.53</ele><time>2026-01-30T18:11:37.000Z</time></trkpt>
        <trkpt lat="29.6584805" lon="104.7204189"><ele>562.4</ele><time>2026-01-30T18:11:49.000Z</time></trkpt>
        <trkpt lat="29.6584668" lon="104.7205446"><ele>562.16</ele><time>2026-01-30T18:11:58.000Z</time></trkpt>
        <trkpt lat="29.6585164" lon="104.7206452"><ele>562.47</ele><time>2026-01-30T18:12:05.000Z</time></trkpt>
        <trkpt lat="29.6586188" lon="104.7206946"><ele>562.31</ele><time>2026-01-30T18:12:16.000Z</time></trkpt>
        <trkpt lat="29.6587285" lon="104.7207232"><ele>562.17</ele><time>2026-01-30T18:12:23.000Z</time></trkpt>
        <trkpt lat="29.6588243" lon="104.7207596"><ele>560.98</ele><time>2026-01-30T18:12:34.000Z</time></trkpt>
        <trkpt lat="29.6589217" lon="104.7207905"><ele>559.73</ele><time>2026-01-30T18:12:45.000Z</time></trkpt>
        <trkpt lat="29.659017" lon="104.7208326"><ele>559.26</ele><time>2026-01-30T18:12:57.000Z</time></trkpt>
        <trkpt lat="29.6590973" lon="104.7208967"><ele>559.09</ele><time>2026-01-30T18:13:07.000Z</time></trkpt>
        <trkpt lat="29.6591768" lon="104.7209743"><ele>559.11</ele><time>2026-01-30T18:13:19.000Z</time></trkpt>
        <trkpt lat="29.6592396" lon="104.7210665"><ele>559.43</ele><time>2026-01-30T18:13:29.000Z</time></trkpt>
        <trkpt lat="29.6593052" lon="104.7211449"><ele>559.85</ele><time>2026-01-30T18:13:39.000Z</time></trkpt>
        <trkpt lat="29.6593743" lon="104.7212255"><ele>560.38</ele><time>2026-01-30T18:13:57.000Z</time></trkpt>
        <trkpt lat="29.6594474" lon="104.7212948"><ele>560.73</ele><time>2026-01-30T18:14:28.000Z</time></trkpt>
        <trkpt lat="29.6595193" lon="104.7213628"><ele>560.43</ele><time>2026-01-30T18:14:40.000Z</time></trkpt>
        <trkpt lat="29.6595462" lon="104.7214675"><ele>560.17</ele><time>2026-01-30T18:14:47.000Z</time></trkpt>
        <trkpt lat="29.6595514" lon="104.721579"><ele>558.69</ele><time>2026-01-30T18:14:55.000Z</time></trkpt>
        <trkpt lat="29.6595815" lon="104.7216911"><ele>558.35</ele><time>2026-01-30T18:15:03.000Z</time></trkpt>
        <trkpt lat="29.6596295" lon="104.7217935"><ele>558.11</ele><time>2026-01-30T18:15:13.000Z</time></trkpt>
        <trkpt lat="29.6596908" lon="104.7218817"><ele>557.18</ele><time>2026-01-30T18:15:21.000Z</time></trkpt>
        <trkpt lat="29.6597574" lon="104.721976"><ele>556.18</ele><time>2026-01-30T18:15:34.000Z</time></trkpt>
        <trkpt lat="29.659852" lon="104.7220405"><ele>555.59</ele><time>2026-01-30T18:15:43.000Z</time></trkpt>
        <trkpt lat="29.6599556" lon="104.7220946"><ele>555.15</ele><time>2026-01-30T18:15:53.000Z</time></trkpt>
        <trkpt lat="29.6600363" lon="104.7221791"><ele>554.56</ele><time>2026-01-30T18:16:03.000Z</time></trkpt>
        <trkpt lat="29.6600673" lon="104.7222787"><ele>554.11</ele><time>2026-01-30T18:16:11.000Z</time></trkpt>
        <trkpt lat="29.6600733" lon="104.7223907"><ele>553.68</ele><time>2026-01-30T18:16:21.000Z</time></trkpt>
        <trkpt lat="29.6600729" lon="104.7225094"><ele>553.2</ele><time>2026-01-30T18:16:31.000Z</time></trkpt>
        <trkpt lat="29.6600762" lon="104.7226217"><ele>552.47</ele><time>2026-01-30T18:16:37.000Z</time></trkpt>
        <trkpt lat="29.6600899" lon="104.7227303"><ele>551.45</ele><time>2026-01-30T18:16:45.000Z</time></trkpt>
        <trkpt lat="29.6601256" lon="104.7228438"><ele>550.19</ele><time>2026-01-30T18:16:55.000Z</time></trkpt>
        <trkpt lat="29.6601925" lon="104.7229342"><ele>548.58</ele><time>2026-01-30T18:17:05.000Z</time></trkpt>
        <trkpt lat="29.6602879" lon="104.7230023"><ele>547.29</ele><time>2026-01-30T18:17:13.000Z</time></trkpt>
        <trkpt lat="29.6603819" lon="104.7230745"><ele>546.48</ele><time>2026-01-30T18:17:23.000Z</time></trkpt>
        <trkpt lat="29.6604765" lon="104.7231478"><ele>547.83</ele><time>2026-01-30T18:17:31.000Z</time></trkpt>
        <trkpt lat="29.6605339" lon="104.7232336"><ele>548.54</ele><time>2026-01-30T18:17:41.000Z</time></trkpt>
        <trkpt lat="29.6605134" lon="104.7233345"><ele>548.78</ele><time>2026-01-30T18:17:51.000Z</time></trkpt>
        <trkpt lat="29.6604582" lon="104.7234438"><ele>548.93</ele><time>2026-01-30T18:18:01.000Z</time></trkpt>
        <trkpt lat="29.6603922" lon="104.7235707"><ele>548.71</ele><time>2026-01-30T18:18:11.000Z</time></trkpt>
        <trkpt lat="29.660338" lon="104.7236789"><ele>548.17</ele><time>2026-01-30T18:18:19.000Z</time></trkpt>
        <trkpt lat="29.6602997" lon="104.7237794"><ele>547.06</ele><time>2026-01-30T18:18:27.000Z</time></trkpt>
        <trkpt lat="29.6603207" lon="104.7238802"><ele>546.26</ele><time>2026-01-30T18:18:35.000Z</time></trkpt>
        <trkpt lat="29.6603655" lon="104.7239833"><ele>547.04</ele><time>2026-01-30T18:18:43.000Z</time></trkpt>
        <trkpt lat="29.6604045" lon="104.724098"><ele>545.52</ele><time>2026-01-30T18:18:54.000Z</time></trkpt>
        <trkpt lat="29.6604219" lon="104.7242085"><ele>545.29</ele><time>2026-01-30T18:19:02.000Z</time></trkpt>
        <trkpt lat="29.6604204" lon="104.7243262"><ele>544.68</ele><time>2026-01-30T18:19:11.000Z</time></trkpt>
        <trkpt lat="29.6604433" lon="104.724445"><ele>544.47</ele><time>2026-01-30T18:19:21.000Z</time></trkpt>
        <trkpt lat="29.660483" lon="104.7245505"><ele>544.55</ele><time>2026-01-30T18:19:31.000Z</time></trkpt>
        <trkpt lat="29.6605231" lon="104.7246541"><ele>544.46</ele><time>2026-01-30T18:19:41.000Z</time></trkpt>
        <trkpt lat="29.6605489" lon="104.7247574"><ele>544.39</ele><time>2026-01-30T18:19:49.000Z</time></trkpt>
        <trkpt lat="29.660575" lon="104.7248737"><ele>543.88</ele><time>2026-01-30T18:19:59.000Z</time></trkpt>
        <trkpt lat="29.6606273" lon="104.7249609"><ele>543.22</ele><time>2026-01-30T18:20:05.000Z</time></trkpt>
        <trkpt lat="29.6607064" lon="104.7250471"><ele>543</ele><time>2026-01-30T18:20:15.000Z</time></trkpt>
        <trkpt lat="29.660793" lon="104.7251311"><ele>542.83</ele><time>2026-01-30T18:20:26.000Z</time></trkpt>
        <trkpt lat="29.6608576" lon="104.7252338"><ele>543.41</ele><time>2026-01-30T18:20:36.000Z</time></trkpt>
        <trkpt lat="29.6609029" lon="104.7253485"><ele>543.45</ele><time>2026-01-30T18:20:43.000Z</time></trkpt>
        <trkpt lat="29.6609221" lon="104.7254603"><ele>543.38</ele><time>2026-01-30T18:20:51.000Z</time></trkpt>
        <trkpt lat="29.6608923" lon="104.7255648"><ele>542.69</ele><time>2026-01-30T18:20:59.000Z</time></trkpt>
        <trkpt lat="29.6608182" lon="104.7256595"><ele>541.74</ele><time>2026-01-30T18:21:09.000Z</time></trkpt>
        <trkpt lat="29.6607329" lon="104.7257353"><ele>540.88</ele><time>2026-01-30T18:21:20.000Z</time></trkpt>
        <trkpt lat="29.6606499" lon="104.7258063"><ele>540.2</ele><time>2026-01-30T18:21:32.000Z</time></trkpt>
        <trkpt lat="29.6606218" lon="104.7259025"><ele>539.43</ele><time>2026-01-30T18:22:13.000Z</time></trkpt>
        <trkpt lat="29.6606961" lon="104.7258819"><ele>537.34</ele><time>2026-01-30T18:22:57.000Z</time></trkpt>
        <trkpt lat="29.6607966" lon="104.7258258"><ele>536.03</ele><time>2026-01-30T18:23:04.000Z</time></trkpt>
        <trkpt lat="29.6609017" lon="104.7257688"><ele>534.12</ele><time>2026-01-30T18:23:18.000Z</time></trkpt>
        <trkpt lat="29.6610022" lon="104.7257482"><ele>532.95</ele><time>2026-01-30T18:23:31.000Z</time></trkpt>
        <trkpt lat="29.6611005" lon="104.7257392"><ele>531.75</ele><time>2026-01-30T18:23:57.000Z</time></trkpt>
        <trkpt lat="29.6611955" lon="104.7257125"><ele>529.99</ele><time>2026-01-30T18:24:17.000Z</time></trkpt>
        <trkpt lat="29.6612884" lon="104.7257012"><ele>528</ele><time>2026-01-30T18:24:27.000Z</time></trkpt>
        <trkpt lat="29.6613785" lon="104.7256908"><ele>526.23</ele><time>2026-01-30T18:24:43.000Z</time></trkpt>
        <trkpt lat="29.6614683" lon="104.7256874"><ele>524.88</ele><time>2026-01-30T18:25:01.000Z</time></trkpt>
        <trkpt lat="29.6615533" lon="104.7257185"><ele>522.84</ele><time>2026-01-30T18:25:21.000Z</time></trkpt>
        <trkpt lat="29.6616539" lon="104.7257666"><ele>521.49</ele><time>2026-01-30T18:25:51.000Z</time></trkpt>
        <trkpt lat="29.6616954" lon="104.7257886"><ele>521.07</ele><time>2026-01-30T18:25:57.000Z</time></trkpt>
        <trkpt lat="29.6617691" lon="104.7258071"><ele>521.05</ele><time>2026-01-30T18:26:11.000Z</time></trkpt>
        <trkpt lat="29.6618596" lon="104.7258171"><ele>521.62</ele><time>2026-01-30T18:26:25.000Z</time></trkpt>
        <trkpt lat="29.6619549" lon="104.725807"><ele>522.28</ele><time>2026-01-30T18:26:41.000Z</time></trkpt>
        <trkpt lat="29.6620185" lon="104.725872"><ele>522.96</ele><time>2026-01-30T18:26:55.000Z</time></trkpt>
        <trkpt lat="29.6620305" lon="104.7259813"><ele>522.91</ele><time>2026-01-30T18:27:11.000Z</time></trkpt>
        <trkpt lat="29.6620202" lon="104.7260309"><ele>522.88</ele><time>2026-01-30T18:27:21.000Z</time></trkpt>
        <trkpt lat="29.6619452" lon="104.726119"><ele>522.84</ele><time>2026-01-30T18:28:47.000Z</time></trkpt>
        <trkpt lat="29.6619052" lon="104.7261203"><ele>523.18</ele><time>2026-01-30T18:29:01.000Z</time></trkpt>
        <trkpt lat="29.661974" lon="104.7261405"><ele>523.68</ele><time>2026-01-30T18:29:37.000Z</time></trkpt>
        <trkpt lat="29.6620664" lon="104.7261307"><ele>524.27</ele><time>2026-01-30T18:30:13.000Z</time></trkpt>
        <trkpt lat="29.6621733" lon="104.7261236"><ele>524.3</ele><time>2026-01-30T18:30:23.000Z</time></trkpt>
        <trkpt lat="29.6622734" lon="104.7261119"><ele>523.78</ele><time>2026-01-30T18:30:35.000Z</time></trkpt>
        <trkpt lat="29.6623867" lon="104.7260896"><ele>524.45</ele><time>2026-01-30T18:31:21.000Z</time></trkpt>
        <trkpt lat="29.662492" lon="104.7260593"><ele>524.11</ele><time>2026-01-30T18:31:31.000Z</time></trkpt>
        <trkpt lat="29.6626013" lon="104.7260836"><ele>524.27</ele><time>2026-01-30T18:31:41.000Z</time></trkpt>
        <trkpt lat="29.6626759" lon="104.7261579"><ele>524.53</ele><time>2026-01-30T18:31:47.000Z</time></trkpt>
        <trkpt lat="29.6627168" lon="104.7262611"><ele>524.53</ele><time>2026-01-30T18:31:55.000Z</time></trkpt>
        <trkpt lat="29.6627375" lon="104.7263871"><ele>523.43</ele><time>2026-01-30T18:32:05.000Z</time></trkpt>
        <trkpt lat="29.6628" lon="104.7264646"><ele>523.71</ele><time>2026-01-30T18:32:15.000Z</time></trkpt>
        <trkpt lat="29.6629014" lon="104.7264707"><ele>523.25</ele><time>2026-01-30T18:32:27.000Z</time></trkpt>
        <trkpt lat="29.6630027" lon="104.726453"><ele>524.58</ele><time>2026-01-30T18:32:41.000Z</time></trkpt>
        <trkpt lat="29.6631167" lon="104.7264439"><ele>525.01</ele><time>2026-01-30T18:32:51.000Z</time></trkpt>
        <trkpt lat="29.6632155" lon="104.7264612"><ele>524.88</ele><time>2026-01-30T18:33:05.000Z</time></trkpt>
        <trkpt lat="29.6633082" lon="104.7265031"><ele>523.93</ele><time>2026-01-30T18:33:19.000Z</time></trkpt>
        <trkpt lat="29.6633978" lon="104.7265353"><ele>523.04</ele><time>2026-01-30T18:33:33.000Z</time></trkpt>
        <trkpt lat="29.6633496" lon="104.7265723"><ele>521.8</ele><time>2026-01-30T18:34:11.000Z</time></trkpt>
        <trkpt lat="29.663251" lon="104.7265876"><ele>521.77</ele><time>2026-01-30T18:34:28.000Z</time></trkpt>
        <trkpt lat="29.6631361" lon="104.7265991"><ele>522.78</ele><time>2026-01-30T18:34:39.000Z</time></trkpt>
        <trkpt lat="29.6630909" lon="104.726682"><ele>524.16</ele><time>2026-01-30T18:35:04.000Z</time></trkpt>
        <trkpt lat="29.6630305" lon="104.7267662"><ele>526.17</ele><time>2026-01-30T18:35:23.000Z</time></trkpt>
        <trkpt lat="29.6629765" lon="104.7268639"><ele>528.42</ele><time>2026-01-30T18:35:43.000Z</time></trkpt>
        <trkpt lat="29.6629339" lon="104.7269634"><ele>530.52</ele><time>2026-01-30T18:35:57.000Z</time></trkpt>
        <trkpt lat="29.6629984" lon="104.7269822"><ele>531.65</ele><time>2026-01-30T18:36:27.000Z</time></trkpt>
        <trkpt lat="29.6630871" lon="104.7270271"><ele>532.99</ele><time>2026-01-30T18:36:55.000Z</time></trkpt>
        <trkpt lat="29.6631225" lon="104.7271243"><ele>538.57</ele><time>2026-01-30T18:37:10.000Z</time></trkpt>
        <trkpt lat="29.6631093" lon="104.727236"><ele>542.27</ele><time>2026-01-30T18:37:23.000Z</time></trkpt>
        <trkpt lat="29.6631554" lon="104.7273231"><ele>544.67</ele><time>2026-01-30T18:37:33.000Z</time></trkpt>
        <trkpt lat="29.6632172" lon="104.7274199"><ele>546.36</ele><time>2026-01-30T18:37:46.000Z</time></trkpt>
        <trkpt lat="29.663256" lon="104.7275234"><ele>544.96</ele><time>2026-01-30T18:37:54.000Z</time></trkpt>
        <trkpt lat="29.6633051" lon="104.7276314"><ele>547.1</ele><time>2026-01-30T18:38:05.000Z</time></trkpt>
        <trkpt lat="29.6633578" lon="104.7277279"><ele>545.07</ele><time>2026-01-30T18:38:13.000Z</time></trkpt>
        <trkpt lat="29.663426" lon="104.7278041"><ele>544.11</ele><time>2026-01-30T18:38:22.000Z</time></trkpt>
        <trkpt lat="29.6635085" lon="104.7278704"><ele>543.9</ele><time>2026-01-30T18:38:38.000Z</time></trkpt>
        <trkpt lat="29.6635606" lon="104.7279632"><ele>545.88</ele><time>2026-01-30T18:38:52.000Z</time></trkpt>
        <trkpt lat="29.6635925" lon="104.7280665"><ele>545.02</ele><time>2026-01-30T18:39:05.000Z</time></trkpt>
        <trkpt lat="29.663629" lon="104.7281655"><ele>545.44</ele><time>2026-01-30T18:39:17.000Z</time></trkpt>
        <trkpt lat="29.6636907" lon="104.7282586"><ele>546.85</ele><time>2026-01-30T18:39:29.000Z</time></trkpt>
        <trkpt lat="29.6637818" lon="104.7282777"><ele>548.42</ele><time>2026-01-30T18:40:08.000Z</time></trkpt>
        <trkpt lat="29.6638583" lon="104.7282194"><ele>552.54</ele><time>2026-01-30T18:40:22.000Z</time></trkpt>
        <trkpt lat="29.6639402" lon="104.7281567"><ele>554.94</ele><time>2026-01-30T18:40:44.000Z</time></trkpt>
        <trkpt lat="29.6640007" lon="104.7282017"><ele>557.43</ele><time>2026-01-30T18:41:04.000Z</time></trkpt>
        <trkpt lat="29.6640518" lon="104.728295"><ele>560.82</ele><time>2026-01-30T18:41:33.000Z</time></trkpt>
        <trkpt lat="29.664104" lon="104.7283977"><ele>564.24</ele><time>2026-01-30T18:42:11.000Z</time></trkpt>
        <trkpt lat="29.6641232" lon="104.7285098"><ele>567.76</ele><time>2026-01-30T18:42:55.000Z</time></trkpt>
        <trkpt lat="29.6641422" lon="104.7286302"><ele>570.5</ele><time>2026-01-30T18:43:35.000Z</time></trkpt>
        <trkpt lat="29.6641598" lon="104.7287445"><ele>574.21</ele><time>2026-01-30T18:43:49.000Z</time></trkpt>
        <trkpt lat="29.664206" lon="104.7288367"><ele>577.92</ele><time>2026-01-30T18:44:13.000Z</time></trkpt>
        <trkpt lat="29.6642801" lon="104.7288953"><ele>582.05</ele><time>2026-01-30T18:44:35.000Z</time></trkpt>
        <trkpt lat="29.6643683" lon="104.7289351"><ele>587.01</ele><time>2026-01-30T18:44:55.000Z</time></trkpt>
        <trkpt lat="29.6644669" lon="104.7289752"><ele>589.69</ele><time>2026-01-30T18:45:11.000Z</time></trkpt>
        <trkpt lat="29.6645602" lon="104.729003"><ele>592.13</ele><time>2026-01-30T18:45:39.000Z</time></trkpt>
        <trkpt lat="29.6646579" lon="104.7290178"><ele>593.83</ele><time>2026-01-30T18:45:47.000Z</time></trkpt>
        <trkpt lat="29.6647509" lon="104.7290384"><ele>592.96</ele><time>2026-01-30T18:45:57.000Z</time></trkpt>
        <trkpt lat="29.6648466" lon="104.7290546"><ele>592.81</ele><time>2026-01-30T18:46:13.000Z</time></trkpt>
        <trkpt lat="29.6649343" lon="104.7291104"><ele>593.54</ele><time>2026-01-30T18:46:25.000Z</time></trkpt>
        <trkpt lat="29.6650232" lon="104.7291584"><ele>594.4</ele><time>2026-01-30T18:46:34.000Z</time></trkpt>
        <trkpt lat="29.6651122" lon="104.7291955"><ele>596.68</ele><time>2026-01-30T18:46:46.000Z</time></trkpt>
        <trkpt lat="29.6652008" lon="104.7292218"><ele>598.01</ele><time>2026-01-30T18:46:54.000Z</time></trkpt>
        <trkpt lat="29.665299" lon="104.7292489"><ele>598.27</ele><time>2026-01-30T18:47:06.000Z</time></trkpt>
        <trkpt lat="29.6653901" lon="104.7292732"><ele>598.57</ele><time>2026-01-30T18:47:14.000Z</time></trkpt>
        <trkpt lat="29.6654855" lon="104.7292868"><ele>598.33</ele><time>2026-01-30T18:47:24.000Z</time></trkpt>
        <trkpt lat="29.6655873" lon="104.7292876"><ele>598.73</ele><time>2026-01-30T18:47:34.000Z</time></trkpt>
        <trkpt lat="29.6656971" lon="104.7292779"><ele>598.77</ele><time>2026-01-30T18:47:44.000Z</time></trkpt>
        <trkpt lat="29.6658009" lon="104.7292497"><ele>598.6</ele><time>2026-01-30T18:48:21.000Z</time></trkpt>
        <trkpt lat="29.6659058" lon="104.7292493"><ele>598.63</ele><time>2026-01-30T18:48:31.000Z</time></trkpt>
        <trkpt lat="29.6659994" lon="104.729257"><ele>595.96</ele><time>2026-01-30T18:48:41.000Z</time></trkpt>
        <trkpt lat="29.6661079" lon="104.7292507"><ele>595.39</ele><time>2026-01-30T18:48:54.000Z</time></trkpt>
        <trkpt lat="29.6662113" lon="104.7292482"><ele>597.3</ele><time>2026-01-30T18:49:08.000Z</time></trkpt>
        <trkpt lat="29.666304" lon="104.7292886"><ele>599.52</ele><time>2026-01-30T18:49:22.000Z</time></trkpt>
        <trkpt lat="29.6663946" lon="104.7293072"><ele>602.08</ele><time>2026-01-30T18:49:33.000Z</time></trkpt>
        <trkpt lat="29.6664862" lon="104.7293329"><ele>602.61</ele><time>2026-01-30T18:49:47.000Z</time></trkpt>
        <trkpt lat="29.6665739" lon="104.7293631"><ele>602.95</ele><time>2026-01-30T18:50:15.000Z</time></trkpt>
        <trkpt lat="29.6666602" lon="104.7293321"><ele>604.46</ele><time>2026-01-30T18:50:25.000Z</time></trkpt>
        <trkpt lat="29.6667277" lon="104.7292519"><ele>604.48</ele><time>2026-01-30T18:50:37.000Z</time></trkpt>
        <trkpt lat="29.666791" lon="104.7291507"><ele>603.36</ele><time>2026-01-30T18:50:49.000Z</time></trkpt>
        <trkpt lat="29.6668532" lon="104.7290569"><ele>601.94</ele><time>2026-01-30T18:51:17.000Z</time></trkpt>
        <trkpt lat="29.6669274" lon="104.7289801"><ele>602.71</ele><time>2026-01-30T18:51:29.000Z</time></trkpt>
        <trkpt lat="29.6669871" lon="104.7288922"><ele>604.1</ele><time>2026-01-30T18:51:41.000Z</time></trkpt>
        <trkpt lat="29.667042" lon="104.7287992"><ele>605.59</ele><time>2026-01-30T18:51:55.000Z</time></trkpt>
        <trkpt lat="29.6671284" lon="104.7287541"><ele>607.21</ele><time>2026-01-30T18:52:10.000Z</time></trkpt>
        <trkpt lat="29.6672241" lon="104.7287098"><ele>608.84</ele><time>2026-01-30T18:52:23.000Z</time></trkpt>
        <trkpt lat="29.6673116" lon="104.7286593"><ele>609.86</ele><time>2026-01-30T18:52:35.000Z</time></trkpt>
        <trkpt lat="29.6674031" lon="104.7286232"><ele>610.51</ele><time>2026-01-30T18:52:47.000Z</time></trkpt>
        <trkpt lat="29.6674948" lon="104.7286168"><ele>611.52</ele><time>2026-01-30T18:52:57.000Z</time></trkpt>
        <trkpt lat="29.6675944" lon="104.7286159"><ele>612.53</ele><time>2026-01-30T18:53:11.000Z</time></trkpt>
        <trkpt lat="29.6676983" lon="104.7286183"><ele>613.55</ele><time>2026-01-30T18:53:23.000Z</time></trkpt>
        <trkpt lat="29.6677942" lon="104.7286008"><ele>614.95</ele><time>2026-01-30T18:53:35.000Z</time></trkpt>
        <trkpt lat="29.6678951" lon="104.72857"><ele>616.04</ele><time>2026-01-30T18:53:48.000Z</time></trkpt>
        <trkpt lat="29.6679792" lon="104.7285031"><ele>619.34</ele><time>2026-01-30T18:53:58.000Z</time></trkpt>
        <trkpt lat="29.6680741" lon="104.7284437"><ele>618.51</ele><time>2026-01-30T18:54:10.000Z</time></trkpt>
        <trkpt lat="29.6680431" lon="104.7283382"><ele>618.39</ele><time>2026-01-30T19:00:57.000Z</time></trkpt>
        <trkpt lat="29.6680672" lon="104.7282174"><ele>620.77</ele><time>2026-01-30T19:01:31.000Z</time></trkpt>
        <trkpt lat="29.6681162" lon="104.7281109"><ele>622.46</ele><time>2026-01-30T19:02:04.000Z</time></trkpt>
        <trkpt lat="29.6681732" lon="104.7280227"><ele>623.83</ele><time>2026-01-30T19:02:09.000Z</time></trkpt>
        <trkpt lat="29.6682374" lon="104.7279333"><ele>624.81</ele><time>2026-01-30T19:02:19.000Z</time></trkpt>
        <trkpt lat="29.6683244" lon="104.7278785"><ele>626</ele><time>2026-01-30T19:03:43.000Z</time></trkpt>
        <trkpt lat="29.6683921" lon="104.7277863"><ele>626.3</ele><time>2026-01-30T19:04:57.000Z</time></trkpt>
        <trkpt lat="29.6684475" lon="104.7276862"><ele>629.06</ele><time>2026-01-30T19:05:05.000Z</time></trkpt>
        <trkpt lat="29.6685196" lon="104.7276202"><ele>629.79</ele><time>2026-01-30T19:05:13.000Z</time></trkpt>
        <trkpt lat="29.6685961" lon="104.727546"><ele>629.03</ele><time>2026-01-30T19:05:23.000Z</time></trkpt>
        <trkpt lat="29.6686811" lon="104.7274811"><ele>627.64</ele><time>2026-01-30T19:05:33.000Z</time></trkpt>
        <trkpt lat="29.6687587" lon="104.7274161"><ele>626.32</ele><time>2026-01-30T19:05:47.000Z</time></trkpt>
        <trkpt lat="29.6688394" lon="104.7273598"><ele>625.77</ele><time>2026-01-30T19:06:01.000Z</time></trkpt>
        <trkpt lat="29.6689156" lon="104.7272897"><ele>626.76</ele><time>2026-01-30T19:06:13.000Z</time></trkpt>
        <trkpt lat="29.668964" lon="104.7271953"><ele>627.27</ele><time>2026-01-30T19:07:15.000Z</time></trkpt>
        <trkpt lat="29.6690445" lon="104.7271366"><ele>629.37</ele><time>2026-01-30T19:07:37.000Z</time></trkpt>
        <trkpt lat="29.6691175" lon="104.7270625"><ele>630.61</ele><time>2026-01-30T19:07:59.000Z</time></trkpt>
        <trkpt lat="29.6691995" lon="104.7270159"><ele>630.84</ele><time>2026-01-30T19:08:37.000Z</time></trkpt>
        <trkpt lat="29.6692947" lon="104.7270333"><ele>631.78</ele><time>2026-01-30T19:12:19.000Z</time></trkpt>
        <trkpt lat="29.6693535" lon="104.7271151"><ele>634.03</ele><time>2026-01-30T19:13:03.000Z</time></trkpt>
        <trkpt lat="29.6693697" lon="104.7272317"><ele>637.59</ele><time>2026-01-30T19:13:15.000Z</time></trkpt>
        <trkpt lat="29.6693877" lon="104.7273551"><ele>646.21</ele><time>2026-01-30T19:13:29.000Z</time></trkpt>
        <trkpt lat="29.6693543" lon="104.7274628"><ele>650.67</ele><time>2026-01-30T19:13:39.000Z</time></trkpt>
        <trkpt lat="29.6693014" lon="104.727577"><ele>653.06</ele><time>2026-01-30T19:13:49.000Z</time></trkpt>
        <trkpt lat="29.6692339" lon="104.7276682"><ele>654.18</ele><time>2026-01-30T19:13:59.000Z</time></trkpt>
        <trkpt lat="29.6691659" lon="104.7277826"><ele>654.24</ele><time>2026-01-30T19:14:09.000Z</time></trkpt>
        <trkpt lat="29.6690935" lon="104.7278675"><ele>656.6</ele><time>2026-01-30T19:14:27.000Z</time></trkpt>
        <trkpt lat="29.6689914" lon="104.727888"><ele>658.85</ele><time>2026-01-30T19:14:51.000Z</time></trkpt>
        <trkpt lat="29.668898" lon="104.727915"><ele>660</ele><time>2026-01-30T19:15:01.000Z</time></trkpt>
        <trkpt lat="29.6688083" lon="104.7279517"><ele>660.69</ele><time>2026-01-30T19:15:11.000Z</time></trkpt>
        <trkpt lat="29.6687184" lon="104.7279882"><ele>660.61</ele><time>2026-01-30T19:15:23.000Z</time></trkpt>
        <trkpt lat="29.6686278" lon="104.728009"><ele>660.32</ele><time>2026-01-30T19:15:35.000Z</time></trkpt>
        <trkpt lat="29.668546" lon="104.728051"><ele>658.95</ele><time>2026-01-30T19:15:45.000Z</time></trkpt>
        <trkpt lat="29.6684563" lon="104.7280671"><ele>657.31</ele><time>2026-01-30T19:15:57.000Z</time></trkpt>
        <trkpt lat="29.6683625" lon="104.7280988"><ele>654.44</ele><time>2026-01-30T19:17:22.000Z</time></trkpt>
        <trkpt lat="29.6682882" lon="104.7281626"><ele>652.9</ele><time>2026-01-30T19:23:33.000Z</time></trkpt>
        <trkpt lat="29.6683544" lon="104.7280751"><ele>649.67</ele><time>2026-01-30T19:36:13.000Z</time></trkpt>
        <trkpt lat="29.6684516" lon="104.7280378"><ele>647.77</ele><time>2026-01-30T19:36:19.000Z</time></trkpt>
        <trkpt lat="29.6685552" lon="104.728018"><ele>646.62</ele><time>2026-01-30T19:36:27.000Z</time></trkpt>
        <trkpt lat="29.6686511" lon="104.728006"><ele>648.39</ele><time>2026-01-30T19:36:40.000Z</time></trkpt>
        <trkpt lat="29.6687515" lon="104.7279762"><ele>647.91</ele><time>2026-01-30T19:36:50.000Z</time></trkpt>
        <trkpt lat="29.6688549" lon="104.7279354"><ele>647.85</ele><time>2026-01-30T19:36:57.000Z</time></trkpt>
        <trkpt lat="29.6689376" lon="104.7278674"><ele>650.28</ele><time>2026-01-30T19:37:07.000Z</time></trkpt>
        <trkpt lat="29.669022" lon="104.7278195"><ele>651.17</ele><time>2026-01-30T19:37:59.000Z</time></trkpt>
        <trkpt lat="29.6691068" lon="104.7277477"><ele>651.31</ele><time>2026-01-30T19:38:07.000Z</time></trkpt>
        <trkpt lat="29.6691752" lon="104.727664"><ele>651.32</ele><time>2026-01-30T19:38:17.000Z</time></trkpt>
        <trkpt lat="29.6692427" lon="104.7275889"><ele>651.32</ele><time>2026-01-30T19:38:25.000Z</time></trkpt>
        <trkpt lat="29.6693075" lon="104.7275035"><ele>651.89</ele><time>2026-01-30T19:38:35.000Z</time></trkpt>
        <trkpt lat="29.6693666" lon="104.727405"><ele>652.29</ele><time>2026-01-30T19:38:45.000Z</time></trkpt>
        <trkpt lat="29.6694092" lon="104.7273012"><ele>652.4</ele><time>2026-01-30T19:38:53.000Z</time></trkpt>
        <trkpt lat="29.6693907" lon="104.7271905"><ele>652.02</ele><time>2026-01-30T19:42:39.000Z</time></trkpt>
        <trkpt lat="29.6693509" lon="104.7270977"><ele>650.79</ele><time>2026-01-30T19:43:53.000Z</time></trkpt>
        <trkpt lat="29.6692344" lon="104.7270811"><ele>648.59</ele><time>2026-01-30T19:44:17.000Z</time></trkpt>
        <trkpt lat="29.669125" lon="104.7270873"><ele>645.65</ele><time>2026-01-30T19:44:29.000Z</time></trkpt>
        <trkpt lat="29.6690222" lon="104.7270869"><ele>643.34</ele><time>2026-01-30T19:44:51.000Z</time></trkpt>
        <trkpt lat="29.6689477" lon="104.7271422"><ele>641.28</ele><time>2026-01-30T19:45:16.000Z</time></trkpt>
        <trkpt lat="29.6689034" lon="104.7272585"><ele>639.12</ele><time>2026-01-30T19:47:23.000Z</time></trkpt>
        <trkpt lat="29.6688366" lon="104.7273293"><ele>633.86</ele><time>2026-01-30T19:47:31.000Z</time></trkpt>
        <trkpt lat="29.6687458" lon="104.7273857"><ele>631.42</ele><time>2026-01-30T19:47:39.000Z</time></trkpt>
        <trkpt lat="29.6686562" lon="104.7274541"><ele>629.97</ele><time>2026-01-30T19:47:47.000Z</time></trkpt>
        <trkpt lat="29.6685602" lon="104.7275228"><ele>626.8</ele><time>2026-01-30T19:47:55.000Z</time></trkpt>
        <trkpt lat="29.6684688" lon="104.7275981"><ele>624.16</ele><time>2026-01-30T19:48:05.000Z</time></trkpt>
        <trkpt lat="29.6684174" lon="104.7276968"><ele>623.55</ele><time>2026-01-30T19:48:11.000Z</time></trkpt>
        <trkpt lat="29.6683734" lon="104.7277969"><ele>624.11</ele><time>2026-01-30T19:48:19.000Z</time></trkpt>
        <trkpt lat="29.6683044" lon="104.7278587"><ele>625.52</ele><time>2026-01-30T19:48:27.000Z</time></trkpt>
        <trkpt lat="29.6682543" lon="104.7279438"><ele>625.91</ele><time>2026-01-30T19:48:35.000Z</time></trkpt>
        <trkpt lat="29.6681717" lon="104.7279998"><ele>626.4</ele><time>2026-01-30T19:48:55.000Z</time></trkpt>
        <trkpt lat="29.6680785" lon="104.7280697"><ele>626.32</ele><time>2026-01-30T19:49:07.000Z</time></trkpt>
        <trkpt lat="29.6680174" lon="104.728161"><ele>629.47</ele><time>2026-01-30T19:49:13.000Z</time></trkpt>
        <trkpt lat="29.668028" lon="104.7282683"><ele>628.24</ele><time>2026-01-30T19:49:28.000Z</time></trkpt>
        <trkpt lat="29.6681082" lon="104.7283508"><ele>628.49</ele><time>2026-01-30T19:49:37.000Z</time></trkpt>
        <trkpt lat="29.6682348" lon="104.7283296"><ele>628.06</ele><time>2026-01-30T19:50:41.000Z</time></trkpt>
        <trkpt lat="29.6683292" lon="104.7283052"><ele>628.95</ele><time>2026-01-30T19:51:01.000Z</time></trkpt>
        <trkpt lat="29.6684212" lon="104.7282731"><ele>631.93</ele><time>2026-01-30T19:51:11.000Z</time></trkpt>
        <trkpt lat="29.6684887" lon="104.7282039"><ele>634.69</ele><time>2026-01-30T19:51:55.000Z</time></trkpt>
        <trkpt lat="29.6684299" lon="104.7281746"><ele>638.27</ele><time>2026-01-30T19:52:19.000Z</time></trkpt>
        <trkpt lat="29.668336" lon="104.7282127"><ele>639.97</ele><time>2026-01-30T19:52:35.000Z</time></trkpt>
        <trkpt lat="29.668246" lon="104.7282933"><ele>640.32</ele><time>2026-01-30T19:52:45.000Z</time></trkpt>
        <trkpt lat="29.6682848" lon="104.7283725"><ele>640.12</ele><time>2026-01-30T19:53:15.000Z</time></trkpt>
        <trkpt lat="29.6683819" lon="104.7283901"><ele>638.2</ele><time>2026-01-30T19:53:23.000Z</time></trkpt>
        <trkpt lat="29.6684982" lon="104.7284084"><ele>636.59</ele><time>2026-01-30T19:53:33.000Z</time></trkpt>
        <trkpt lat="29.6686128" lon="104.728411"><ele>632.42</ele><time>2026-01-30T19:53:41.000Z</time></trkpt>
        <trkpt lat="29.6687151" lon="104.728431"><ele>632.17</ele><time>2026-01-30T19:53:49.000Z</time></trkpt>
        <trkpt lat="29.6688087" lon="104.7284682"><ele>630.47</ele><time>2026-01-30T19:53:58.000Z</time></trkpt>
        <trkpt lat="29.6689001" lon="104.7284847"><ele>627.8</ele><time>2026-01-30T19:54:05.000Z</time></trkpt>
        <trkpt lat="29.6688421" lon="104.7284596"><ele>627.99</ele><time>2026-01-30T19:54:41.000Z</time></trkpt>
        <trkpt lat="29.6688577" lon="104.7285317"><ele>626.25</ele><time>2026-01-30T19:54:52.000Z</time></trkpt>
        <trkpt lat="29.6689276" lon="104.7286051"><ele>625.19</ele><time>2026-01-30T19:54:55.000Z</time></trkpt>
        <trkpt lat="29.6690336" lon="104.7286421"><ele>624.11</ele><time>2026-01-30T19:55:03.000Z</time></trkpt>
        <trkpt lat="29.6691111" lon="104.7287333"><ele>623.78</ele><time>2026-01-30T19:55:11.000Z</time></trkpt>
        <trkpt lat="29.6691739" lon="104.7288297"><ele>622.97</ele><time>2026-01-30T19:55:19.000Z</time></trkpt>
        <trkpt lat="29.669242" lon="104.7289358"><ele>622.68</ele><time>2026-01-30T19:55:25.000Z</time></trkpt>
        <trkpt lat="29.6693177" lon="104.7290202"><ele>622.32</ele><time>2026-01-30T19:55:35.000Z</time></trkpt>
        <trkpt lat="29.669396" lon="104.7290999"><ele>620.16</ele><time>2026-01-30T19:55:47.000Z</time></trkpt>
        <trkpt lat="29.6694365" lon="104.7291939"><ele>618.4</ele><time>2026-01-30T19:55:57.000Z</time></trkpt>
        <trkpt lat="29.6694636" lon="104.7292942"><ele>617.12</ele><time>2026-01-30T19:56:11.000Z</time></trkpt>
        <trkpt lat="29.6695255" lon="104.7293836"><ele>615.64</ele><time>2026-01-30T19:56:33.000Z</time></trkpt>
        <trkpt lat="29.6696122" lon="104.7294309"><ele>613.9</ele><time>2026-01-30T19:58:45.000Z</time></trkpt>
        <trkpt lat="29.6696913" lon="104.7295317"><ele>611.98</ele><time>2026-01-30T19:59:33.000Z</time></trkpt>
        <trkpt lat="29.669756" lon="104.7296219"><ele>610.66</ele><time>2026-01-30T19:59:40.000Z</time></trkpt>
        <trkpt lat="29.6698137" lon="104.7297051"><ele>609.25</ele><time>2026-01-30T19:59:45.000Z</time></trkpt>
        <trkpt lat="29.6698678" lon="104.7297935"><ele>607.6</ele><time>2026-01-30T19:59:54.000Z</time></trkpt>
        <trkpt lat="29.6699223" lon="104.7298797"><ele>604.73</ele><time>2026-01-30T20:00:05.000Z</time></trkpt>
        <trkpt lat="29.6700172" lon="104.7298683"><ele>601.52</ele><time>2026-01-30T20:03:35.000Z</time></trkpt>
        <trkpt lat="29.6700948" lon="104.7297968"><ele>599.35</ele><time>2026-01-30T20:05:59.000Z</time></trkpt>
        <trkpt lat="29.6701942" lon="104.729759"><ele>594.88</ele><time>2026-01-30T20:06:17.000Z</time></trkpt>
        <trkpt lat="29.6702925" lon="104.7297417"><ele>589.77</ele><time>2026-01-30T20:06:27.000Z</time></trkpt>
        <trkpt lat="29.6703854" lon="104.7297458"><ele>584.83</ele><time>2026-01-30T20:06:35.000Z</time></trkpt>
        <trkpt lat="29.6704771" lon="104.7297802"><ele>579.62</ele><time>2026-01-30T20:06:43.000Z</time></trkpt>
        <trkpt lat="29.6705577" lon="104.7298568"><ele>571.51</ele><time>2026-01-30T20:06:52.000Z</time></trkpt>
        <trkpt lat="29.6705786" lon="104.7299645"><ele>567.7</ele><time>2026-01-30T20:07:03.000Z</time></trkpt>
        <trkpt lat="29.6705464" lon="104.7300752"><ele>564.31</ele><time>2026-01-30T20:07:11.000Z</time></trkpt>
        <trkpt lat="29.6705428" lon="104.7301913"><ele>562.09</ele><time>2026-01-30T20:07:21.000Z</time></trkpt>
        <trkpt lat="29.6705578" lon="104.7303009"><ele>560.11</ele><time>2026-01-30T20:07:31.000Z</time></trkpt>
        <trkpt lat="29.6705863" lon="104.7304193"><ele>558.76</ele><time>2026-01-30T20:07:41.000Z</time></trkpt>
        <trkpt lat="29.6705603" lon="104.7305285"><ele>556.33</ele><time>2026-01-30T20:07:51.000Z</time></trkpt>
        <trkpt lat="29.6705144" lon="104.730642"><ele>555.91</ele><time>2026-01-30T20:08:11.000Z</time></trkpt>
        <trkpt lat="29.6705054" lon="104.7307485"><ele>556.12</ele><time>2026-01-30T20:08:21.000Z</time></trkpt>
        <trkpt lat="29.670516" lon="104.7308518"><ele>556.3</ele><time>2026-01-30T20:08:31.000Z</time></trkpt>
        <trkpt lat="29.6705419" lon="104.7309613"><ele>558.19</ele><time>2026-01-30T20:08:41.000Z</time></trkpt>
        <trkpt lat="29.6706157" lon="104.7310348"><ele>559.71</ele><time>2026-01-30T20:08:49.000Z</time></trkpt>
        <trkpt lat="29.6707078" lon="104.7310844"><ele>561.03</ele><time>2026-01-30T20:09:03.000Z</time></trkpt>
        <trkpt lat="29.6708149" lon="104.7311213"><ele>561.07</ele><time>2026-01-30T20:09:11.000Z</time></trkpt>
        <trkpt lat="29.6709163" lon="104.7311611"><ele>561.02</ele><time>2026-01-30T20:09:19.000Z</time></trkpt>
        <trkpt lat="29.6709981" lon="104.7312218"><ele>559.95</ele><time>2026-01-30T20:09:27.000Z</time></trkpt>
        <trkpt lat="29.6710494" lon="104.7313117"><ele>557.11</ele><time>2026-01-30T20:09:35.000Z</time></trkpt>
        <trkpt lat="29.6709904" lon="104.7313941"><ele>555.64</ele><time>2026-01-30T20:09:45.000Z</time></trkpt>
        <trkpt lat="29.6709182" lon="104.7314823"><ele>554.95</ele><time>2026-01-30T20:09:55.000Z</time></trkpt>
        <trkpt lat="29.6708186" lon="104.7315503"><ele>554.64</ele><time>2026-01-30T20:10:03.000Z</time></trkpt>
        <trkpt lat="29.6707233" lon="104.7316244"><ele>554.47</ele><time>2026-01-30T20:10:13.000Z</time></trkpt>
        <trkpt lat="29.6706831" lon="104.7317265"><ele>554.49</ele><time>2026-01-30T20:10:19.000Z</time></trkpt>
        <trkpt lat="29.6706812" lon="104.7318442"><ele>554.8</ele><time>2026-01-30T20:10:29.000Z</time></trkpt>
        <trkpt lat="29.6707079" lon="104.7319684"><ele>555.5</ele><time>2026-01-30T20:10:39.000Z</time></trkpt>
        <trkpt lat="29.6707707" lon="104.7320769"><ele>556.29</ele><time>2026-01-30T20:10:47.000Z</time></trkpt>
        <trkpt lat="29.6708548" lon="104.7321525"><ele>556.83</ele><time>2026-01-30T20:10:55.000Z</time></trkpt>
        <trkpt lat="29.6709046" lon="104.7322513"><ele>555.45</ele><time>2026-01-30T20:11:04.000Z</time></trkpt>
        <trkpt lat="29.6709103" lon="104.7323667"><ele>552.98</ele><time>2026-01-30T20:11:11.000Z</time></trkpt>
        <trkpt lat="29.6709226" lon="104.7324905"><ele>551.07</ele><time>2026-01-30T20:11:22.000Z</time></trkpt>
        <trkpt lat="29.6709045" lon="104.7326173"><ele>549.23</ele><time>2026-01-30T20:11:31.000Z</time></trkpt>
        <trkpt lat="29.6708763" lon="104.7327396"><ele>547.91</ele><time>2026-01-30T20:11:41.000Z</time></trkpt>
        <trkpt lat="29.6709101" lon="104.7328367"><ele>546.79</ele><time>2026-01-30T20:11:51.000Z</time></trkpt>
        <trkpt lat="29.6709964" lon="104.7328844"><ele>546.8</ele><time>2026-01-30T20:11:59.000Z</time></trkpt>
        <trkpt lat="29.6711024" lon="104.7329283"><ele>547.23</ele><time>2026-01-30T20:12:07.000Z</time></trkpt>
        <trkpt lat="29.671215" lon="104.7329717"><ele>547.7</ele><time>2026-01-30T20:12:16.000Z</time></trkpt>
        <trkpt lat="29.6713276" lon="104.7330046"><ele>547.82</ele><time>2026-01-30T20:12:23.000Z</time></trkpt>
        <trkpt lat="29.6714234" lon="104.7330515"><ele>547.57</ele><time>2026-01-30T20:12:31.000Z</time></trkpt>
        <trkpt lat="29.671443" lon="104.7331557"><ele>546.93</ele><time>2026-01-30T20:12:41.000Z</time></trkpt>
        <trkpt lat="29.6715225" lon="104.7332001"><ele>546.59</ele><time>2026-01-30T20:12:52.000Z</time></trkpt>
        <trkpt lat="29.6716109" lon="104.7331878"><ele>545.83</ele><time>2026-01-30T20:12:59.000Z</time></trkpt>
        <trkpt lat="29.6717066" lon="104.7331309"><ele>545.44</ele><time>2026-01-30T20:13:07.000Z</time></trkpt>
        <trkpt lat="29.6717906" lon="104.7330645"><ele>545.13</ele><time>2026-01-30T20:13:15.000Z</time></trkpt>
        <trkpt lat="29.6718748" lon="104.7330083"><ele>544.59</ele><time>2026-01-30T20:13:25.000Z</time></trkpt>
        <trkpt lat="29.6719657" lon="104.732987"><ele>544.11</ele><time>2026-01-30T20:13:33.000Z</time></trkpt>
        <trkpt lat="29.6720575" lon="104.7329997"><ele>543.48</ele><time>2026-01-30T20:13:41.000Z</time></trkpt>
        <trkpt lat="29.6721627" lon="104.7330519"><ele>542.57</ele><time>2026-01-30T20:13:51.000Z</time></trkpt>
        <trkpt lat="29.6722655" lon="104.7331106"><ele>540.63</ele><time>2026-01-30T20:13:59.000Z</time></trkpt>
        <trkpt lat="29.6723605" lon="104.7331699"><ele>539.51</ele><time>2026-01-30T20:14:09.000Z</time></trkpt>
        <trkpt lat="29.6724413" lon="104.7332293"><ele>538.58</ele><time>2026-01-30T20:14:17.000Z</time></trkpt>
        <trkpt lat="29.672545" lon="104.7332107"><ele>535.89</ele><time>2026-01-30T20:14:27.000Z</time></trkpt>
        <trkpt lat="29.6726189" lon="104.7331394"><ele>533.68</ele><time>2026-01-30T20:14:35.000Z</time></trkpt>
        <trkpt lat="29.6726674" lon="104.7330218"><ele>532.16</ele><time>2026-01-30T20:14:43.000Z</time></trkpt>
        <trkpt lat="29.6726982" lon="104.7329058"><ele>530.41</ele><time>2026-01-30T20:14:51.000Z</time></trkpt>
        <trkpt lat="29.6727216" lon="104.732961"><ele>529.1</ele><time>2026-01-30T20:15:17.000Z</time></trkpt>
        <trkpt lat="29.6727208" lon="104.7330842"><ele>525.71</ele><time>2026-01-30T20:15:27.000Z</time></trkpt>
        <trkpt lat="29.6727143" lon="104.7332294"><ele>524.9</ele><time>2026-01-30T20:15:37.000Z</time></trkpt>
        <trkpt lat="29.6727157" lon="104.7333558"><ele>523.48</ele><time>2026-01-30T20:15:45.000Z</time></trkpt>
        <trkpt lat="29.6727282" lon="104.7334712"><ele>521.85</ele><time>2026-01-30T20:15:53.000Z</time></trkpt>
        <trkpt lat="29.6727686" lon="104.7335782"><ele>520.59</ele><time>2026-01-30T20:16:03.000Z</time></trkpt>
        <trkpt lat="29.672802" lon="104.7336827"><ele>519.68</ele><time>2026-01-30T20:16:11.000Z</time></trkpt>
        <trkpt lat="29.6728499" lon="104.7337806"><ele>518.51</ele><time>2026-01-30T20:16:21.000Z</time></trkpt>
        <trkpt lat="29.6729333" lon="104.7338527"><ele>516.82</ele><time>2026-01-30T20:16:49.000Z</time></trkpt>
        <trkpt lat="29.673043" lon="104.7339041"><ele>515.86</ele><time>2026-01-30T20:16:57.000Z</time></trkpt>
        <trkpt lat="29.6731506" lon="104.7339249"><ele>514</ele><time>2026-01-30T20:17:05.000Z</time></trkpt>
        <trkpt lat="29.6732534" lon="104.733942"><ele>513.36</ele><time>2026-01-30T20:17:13.000Z</time></trkpt>
        <trkpt lat="29.6733469" lon="104.7339909"><ele>512.9</ele><time>2026-01-30T20:17:25.000Z</time></trkpt>
        <trkpt lat="29.6734056" lon="104.7340766"><ele>513.26</ele><time>2026-01-30T20:17:33.000Z</time></trkpt>
        <trkpt lat="29.6734149" lon="104.7341895"><ele>513.74</ele><time>2026-01-30T20:17:43.000Z</time></trkpt>
        <trkpt lat="29.6734313" lon="104.7343034"><ele>513.75</ele><time>2026-01-30T20:17:51.000Z</time></trkpt>
        <trkpt lat="29.6734726" lon="104.7344086"><ele>513.53</ele><time>2026-01-30T20:18:00.000Z</time></trkpt>
        <trkpt lat="29.6735415" lon="104.7345071"><ele>513.19</ele><time>2026-01-30T20:18:10.000Z</time></trkpt>
        <trkpt lat="29.6736209" lon="104.7345931"><ele>512.67</ele><time>2026-01-30T20:18:19.000Z</time></trkpt>
        <trkpt lat="29.6736718" lon="104.7346971"><ele>512.04</ele><time>2026-01-30T20:18:29.000Z</time></trkpt>
        <trkpt lat="29.6736801" lon="104.7348184"><ele>511.78</ele><time>2026-01-30T20:18:37.000Z</time></trkpt>
        <trkpt lat="29.6737085" lon="104.7349244"><ele>511.11</ele><time>2026-01-30T20:18:45.000Z</time></trkpt>
        <trkpt lat="29.6737529" lon="104.7350252"><ele>510.38</ele><time>2026-01-30T20:18:53.000Z</time></trkpt>
        <trkpt lat="29.6737806" lon="104.7351448"><ele>510.01</ele><time>2026-01-30T20:19:01.000Z</time></trkpt>
        <trkpt lat="29.6737893" lon="104.7352648"><ele>509.46</ele><time>2026-01-30T20:19:10.000Z</time></trkpt>
        <trkpt lat="29.6738151" lon="104.7353804"><ele>508.67</ele><time>2026-01-30T20:19:19.000Z</time></trkpt>
        <trkpt lat="29.6738907" lon="104.7354009"><ele>507.44</ele><time>2026-01-30T20:19:39.000Z</time></trkpt>
        <trkpt lat="29.6739847" lon="104.7353046"><ele>507.44</ele><time>2026-01-30T20:22:27.000Z</time></trkpt>
        <trkpt lat="29.6739944" lon="104.7351951"><ele>507.69</ele><time>2026-01-30T21:01:29.000Z</time></trkpt>
        <trkpt lat="29.6740474" lon="104.7351055"><ele>509.78</ele><time>2026-01-30T21:01:45.000Z</time></trkpt>
        <trkpt lat="29.6741271" lon="104.7350558"><ele>512.37</ele><time>2026-01-30T21:02:01.000Z</time></trkpt>
        <trkpt lat="29.674223" lon="104.7350034"><ele>513.52</ele><time>2026-01-30T21:02:15.000Z</time></trkpt>
        <trkpt lat="29.6743244" lon="104.7349846"><ele>513.33</ele><time>2026-01-30T21:02:29.000Z</time></trkpt>
        <trkpt lat="29.6744322" lon="104.7349861"><ele>514.01</ele><time>2026-01-30T21:02:37.000Z</time></trkpt>
        <trkpt lat="29.6745364" lon="104.7350135"><ele>513.02</ele><time>2026-01-30T21:02:51.000Z</time></trkpt>
        <trkpt lat="29.6746289" lon="104.7350076"><ele>512.42</ele><time>2026-01-30T21:03:07.000Z</time></trkpt>
        <trkpt lat="29.6747177" lon="104.7349879"><ele>512.15</ele><time>2026-01-30T21:03:27.000Z</time></trkpt>
        <trkpt lat="29.6748067" lon="104.7349618"><ele>512.76</ele><time>2026-01-30T21:03:39.000Z</time></trkpt>
        <trkpt lat="29.6748961" lon="104.7349132"><ele>513.5</ele><time>2026-01-30T21:03:51.000Z</time></trkpt>
        <trkpt lat="29.6749867" lon="104.7348918"><ele>514.79</ele><time>2026-01-30T21:04:13.000Z</time></trkpt>
        <trkpt lat="29.6750805" lon="104.7348537"><ele>515.67</ele><time>2026-01-30T21:04:28.000Z</time></trkpt>
        <trkpt lat="29.6751525" lon="104.7347784"><ele>516.32</ele><time>2026-01-30T21:04:39.000Z</time></trkpt>
        <trkpt lat="29.675225" lon="104.7346918"><ele>517.79</ele><time>2026-01-30T21:04:55.000Z</time></trkpt>
        <trkpt lat="29.6752971" lon="104.7346171"><ele>521.61</ele><time>2026-01-30T21:05:09.000Z</time></trkpt>
        <trkpt lat="29.6753627" lon="104.7345396"><ele>522.69</ele><time>2026-01-30T21:05:27.000Z</time></trkpt>
        <trkpt lat="29.675436" lon="104.7344665"><ele>524.83</ele><time>2026-01-30T21:05:51.000Z</time></trkpt>
        <trkpt lat="29.6755225" lon="104.7344671"><ele>527.03</ele><time>2026-01-30T21:06:03.000Z</time></trkpt>
        <trkpt lat="29.6756005" lon="104.7344235"><ele>528.75</ele><time>2026-01-30T21:06:11.000Z</time></trkpt>
        <trkpt lat="29.6756975" lon="104.7343899"><ele>529.26</ele><time>2026-01-30T21:06:23.000Z</time></trkpt>
        <trkpt lat="29.6757946" lon="104.7343512"><ele>521.96</ele><time>2026-01-30T21:06:37.000Z</time></trkpt>
        <trkpt lat="29.6758591" lon="104.7342767"><ele>526.26</ele><time>2026-01-30T21:06:47.000Z</time></trkpt>
        <trkpt lat="29.6759285" lon="104.7342081"><ele>523.21</ele><time>2026-01-30T21:07:05.000Z</time></trkpt>
        <trkpt lat="29.6759842" lon="104.7341222"><ele>522.43</ele><time>2026-01-30T21:07:15.000Z</time></trkpt>
        <trkpt lat="29.6760494" lon="104.7340429"><ele>522.24</ele><time>2026-01-30T21:07:28.000Z</time></trkpt>
        <trkpt lat="29.6761057" lon="104.7339376"><ele>523.19</ele><time>2026-01-30T21:07:45.000Z</time></trkpt>
        <trkpt lat="29.6761848" lon="104.7338771"><ele>527.96</ele><time>2026-01-30T21:07:55.000Z</time></trkpt>
        <trkpt lat="29.676281" lon="104.7338625"><ele>531.45</ele><time>2026-01-30T21:08:05.000Z</time></trkpt>
        <trkpt lat="29.6763749" lon="104.7338485"><ele>533.82</ele><time>2026-01-30T21:08:17.000Z</time></trkpt>
        <trkpt lat="29.6763792" lon="104.7337631"><ele>532.88</ele><time>2026-01-30T21:08:31.000Z</time></trkpt>
        <trkpt lat="29.6763202" lon="104.7336806"><ele>531</ele><time>2026-01-30T21:08:41.000Z</time></trkpt>
        <trkpt lat="29.6763057" lon="104.7335682"><ele>530.15</ele><time>2026-01-30T21:09:05.000Z</time></trkpt>
        <trkpt lat="29.6763373" lon="104.733455"><ele>535.34</ele><time>2026-01-30T21:09:19.000Z</time></trkpt>
        <trkpt lat="29.6763883" lon="104.7333498"><ele>539.93</ele><time>2026-01-30T21:09:34.000Z</time></trkpt>
        <trkpt lat="29.6764248" lon="104.7332417"><ele>538.61</ele><time>2026-01-30T21:09:43.000Z</time></trkpt>
        <trkpt lat="29.6764435" lon="104.7331271"><ele>536.89</ele><time>2026-01-30T21:09:59.000Z</time></trkpt>
        <trkpt lat="29.6764935" lon="104.7330302"><ele>535.52</ele><time>2026-01-30T21:10:15.000Z</time></trkpt>
        <trkpt lat="29.6765551" lon="104.7329491"><ele>534.32</ele><time>2026-01-30T21:10:29.000Z</time></trkpt>
        <trkpt lat="29.6766135" lon="104.7328628"><ele>532.82</ele><time>2026-01-30T21:10:45.000Z</time></trkpt>
        <trkpt lat="29.6767082" lon="104.732799"><ele>535.74</ele><time>2026-01-30T21:13:09.000Z</time></trkpt>
        <trkpt lat="29.6767977" lon="104.7327591"><ele>537.41</ele><time>2026-01-30T21:13:27.000Z</time></trkpt>
        <trkpt lat="29.6768877" lon="104.7327216"><ele>537.72</ele><time>2026-01-30T21:14:04.000Z</time></trkpt>
        <trkpt lat="29.6769787" lon="104.7326635"><ele>538.04</ele><time>2026-01-30T21:14:11.000Z</time></trkpt>
        <trkpt lat="29.6770686" lon="104.7326581"><ele>539.68</ele><time>2026-01-30T21:14:19.000Z</time></trkpt>
        <trkpt lat="29.6771535" lon="104.7327038"><ele>540.57</ele><time>2026-01-30T21:14:29.000Z</time></trkpt>
        <trkpt lat="29.6772217" lon="104.7327837"><ele>540.88</ele><time>2026-01-30T21:14:45.000Z</time></trkpt>
        <trkpt lat="29.6772944" lon="104.7328553"><ele>541.73</ele><time>2026-01-30T21:14:59.000Z</time></trkpt>
        <trkpt lat="29.6773812" lon="104.7329311"><ele>542.79</ele><time>2026-01-30T21:15:11.000Z</time></trkpt>
        <trkpt lat="29.6774575" lon="104.7330022"><ele>541.68</ele><time>2026-01-30T21:15:21.000Z</time></trkpt>
        <trkpt lat="29.677431" lon="104.733084"><ele>540.35</ele><time>2026-01-30T21:15:34.000Z</time></trkpt>
        <trkpt lat="29.6774487" lon="104.7331754"><ele>541.04</ele><time>2026-01-30T21:16:03.000Z</time></trkpt>
        <trkpt lat="29.6775205" lon="104.733198"><ele>541.2</ele><time>2026-01-30T21:16:15.000Z</time></trkpt>
        <trkpt lat="29.6775631" lon="104.7332754"><ele>540.65</ele><time>2026-01-30T21:16:31.000Z</time></trkpt>
        <trkpt lat="29.6776332" lon="104.7332597"><ele>541.61</ele><time>2026-01-30T21:16:46.000Z</time></trkpt>
        <trkpt lat="29.6777211" lon="104.7332443"><ele>543.29</ele><time>2026-01-30T21:17:01.000Z</time></trkpt>
        <trkpt lat="29.6778177" lon="104.7332481"><ele>545</ele><time>2026-01-30T21:17:22.000Z</time></trkpt>
        <trkpt lat="29.6779113" lon="104.733269"><ele>547.58</ele><time>2026-01-30T21:17:40.000Z</time></trkpt>
        <trkpt lat="29.6780046" lon="104.7332744"><ele>550.33</ele><time>2026-01-30T21:18:05.000Z</time></trkpt>
        <trkpt lat="29.6781135" lon="104.7332794"><ele>553.19</ele><time>2026-01-30T21:18:27.000Z</time></trkpt>
        <trkpt lat="29.6782131" lon="104.7333035"><ele>555.68</ele><time>2026-01-30T21:18:43.000Z</time></trkpt>
        <trkpt lat="29.6782983" lon="104.7333552"><ele>558.52</ele><time>2026-01-30T21:19:01.000Z</time></trkpt>
        <trkpt lat="29.6783508" lon="104.7334406"><ele>561.2</ele><time>2026-01-30T21:19:13.000Z</time></trkpt>
        <trkpt lat="29.6783893" lon="104.7335532"><ele>563.07</ele><time>2026-01-30T21:19:29.000Z</time></trkpt>
        <trkpt lat="29.6784012" lon="104.7336668"><ele>565.03</ele><time>2026-01-30T21:19:37.000Z</time></trkpt>
        <trkpt lat="29.678435" lon="104.7337401"><ele>566.71</ele><time>2026-01-30T21:19:59.000Z</time></trkpt>
        <trkpt lat="29.6784098" lon="104.7338298"><ele>569.68</ele><time>2026-01-30T21:20:17.000Z</time></trkpt>
        <trkpt lat="29.6783692" lon="104.7339298"><ele>571.52</ele><time>2026-01-30T21:20:25.000Z</time></trkpt>
        <trkpt lat="29.678323" lon="104.734035"><ele>572.54</ele><time>2026-01-30T21:20:37.000Z</time></trkpt>
        <trkpt lat="29.6782821" lon="104.7341356"><ele>572.57</ele><time>2026-01-30T21:20:49.000Z</time></trkpt>
        <trkpt lat="29.6782267" lon="104.7342332"><ele>572.09</ele><time>2026-01-30T21:20:57.000Z</time></trkpt>
        <trkpt lat="29.6781644" lon="104.7343163"><ele>571.96</ele><time>2026-01-30T21:21:05.000Z</time></trkpt>
        <trkpt lat="29.678086" lon="104.7343947"><ele>572.15</ele><time>2026-01-30T21:21:15.000Z</time></trkpt>
        <trkpt lat="29.6780013" lon="104.7344584"><ele>572.34</ele><time>2026-01-30T21:21:27.000Z</time></trkpt>
        <trkpt lat="29.6779133" lon="104.7345122"><ele>572.6</ele><time>2026-01-30T21:21:39.000Z</time></trkpt>
        <trkpt lat="29.677828" lon="104.7345746"><ele>572.29</ele><time>2026-01-30T21:21:51.000Z</time></trkpt>
        <trkpt lat="29.6777715" lon="104.73466"><ele>571.55</ele><time>2026-01-30T21:22:01.000Z</time></trkpt>
        <trkpt lat="29.6777319" lon="104.7347597"><ele>570.81</ele><time>2026-01-30T21:22:11.000Z</time></trkpt>
        <trkpt lat="29.6776831" lon="104.7348487"><ele>570.78</ele><time>2026-01-30T21:22:19.000Z</time></trkpt>
        <trkpt lat="29.6776925" lon="104.7349608"><ele>570.61</ele><time>2026-01-30T21:22:29.000Z</time></trkpt>
        <trkpt lat="29.6777628" lon="104.7350423"><ele>570.2</ele><time>2026-01-30T21:22:39.000Z</time></trkpt>
        <trkpt lat="29.6778458" lon="104.7351065"><ele>569.79</ele><time>2026-01-30T21:23:07.000Z</time></trkpt>
        <trkpt lat="29.6779416" lon="104.7351433"><ele>569.64</ele><time>2026-01-30T21:23:22.000Z</time></trkpt>
        <trkpt lat="29.6780411" lon="104.7351728"><ele>569.45</ele><time>2026-01-30T21:23:37.000Z</time></trkpt>
        <trkpt lat="29.6781268" lon="104.73522"><ele>569.03</ele><time>2026-01-30T21:23:59.000Z</time></trkpt>
        <trkpt lat="29.6782127" lon="104.7352732"><ele>567.97</ele><time>2026-01-30T21:24:25.000Z</time></trkpt>
        <trkpt lat="29.6782319" lon="104.7353782"><ele>565.91</ele><time>2026-01-30T21:25:21.000Z</time></trkpt>
        <trkpt lat="29.6782267" lon="104.7355025"><ele>564.13</ele><time>2026-01-30T21:25:31.000Z</time></trkpt>
        <trkpt lat="29.6782276" lon="104.7355737"><ele>560.9</ele><time>2026-01-30T21:25:37.000Z</time></trkpt>
        <trkpt lat="29.6782127" lon="104.7356757"><ele>557.97</ele><time>2026-01-30T21:26:05.000Z</time></trkpt>
        <trkpt lat="29.6781976" lon="104.735794"><ele>553.32</ele><time>2026-01-30T21:26:17.000Z</time></trkpt>
        <trkpt lat="29.6781546" lon="104.7358926"><ele>548.92</ele><time>2026-01-30T21:26:40.000Z</time></trkpt>
        <trkpt lat="29.6781418" lon="104.7359972"><ele>543.72</ele><time>2026-01-30T21:27:01.000Z</time></trkpt>
        <trkpt lat="29.6781625" lon="104.7360997"><ele>539.77</ele><time>2026-01-30T21:27:25.000Z</time></trkpt>
        <trkpt lat="29.6781968" lon="104.7362054"><ele>537.13</ele><time>2026-01-30T21:28:11.000Z</time></trkpt>
        <trkpt lat="29.6782673" lon="104.7362796"><ele>534.64</ele><time>2026-01-30T21:28:47.000Z</time></trkpt>
        <trkpt lat="29.6783306" lon="104.7363657"><ele>531.94</ele><time>2026-01-30T21:29:05.000Z</time></trkpt>
        <trkpt lat="29.6782812" lon="104.7364373"><ele>528.69</ele><time>2026-01-30T21:29:29.000Z</time></trkpt>
        <trkpt lat="29.6781933" lon="104.7364881"><ele>525.82</ele><time>2026-01-30T21:29:39.000Z</time></trkpt>
        <trkpt lat="29.6781028" lon="104.7365385"><ele>524.58</ele><time>2026-01-30T21:30:13.000Z</time></trkpt>
        <trkpt lat="29.6781172" lon="104.7366132"><ele>525.65</ele><time>2026-01-30T21:30:47.000Z</time></trkpt>
        <trkpt lat="29.6781601" lon="104.7366459"><ele>528.98</ele><time>2026-01-30T21:30:57.000Z</time></trkpt>
        <trkpt lat="29.6781766" lon="104.7367382"><ele>531.78</ele><time>2026-01-30T21:31:33.000Z</time></trkpt>
        <trkpt lat="29.6782051" lon="104.7368413"><ele>535.06</ele><time>2026-01-30T21:31:49.000Z</time></trkpt>
        <trkpt lat="29.6782353" lon="104.7369458"><ele>538.33</ele><time>2026-01-30T21:32:01.000Z</time></trkpt>
        <trkpt lat="29.6782528" lon="104.7370555"><ele>540.59</ele><time>2026-01-30T21:32:11.000Z</time></trkpt>
        <trkpt lat="29.67824" lon="104.7371612"><ele>541.84</ele><time>2026-01-30T21:32:21.000Z</time></trkpt>
        <trkpt lat="29.6782198" lon="104.7372646"><ele>542.56</ele><time>2026-01-30T21:32:31.000Z</time></trkpt>
        <trkpt lat="29.6782112" lon="104.7373698"><ele>543.47</ele><time>2026-01-30T21:32:41.000Z</time></trkpt>
        <trkpt lat="29.6782112" lon="104.737475"><ele>544.18</ele><time>2026-01-30T21:32:51.000Z</time></trkpt>
        <trkpt lat="29.6782396" lon="104.7375832"><ele>545.02</ele><time>2026-01-30T21:33:03.000Z</time></trkpt>
        <trkpt lat="29.6783103" lon="104.7376657"><ele>545.87</ele><time>2026-01-30T21:33:16.000Z</time></trkpt>
        <trkpt lat="29.6784115" lon="104.7377094"><ele>546.95</ele><time>2026-01-30T21:33:25.000Z</time></trkpt>
        <trkpt lat="29.6784987" lon="104.737765"><ele>547.65</ele><time>2026-01-30T21:33:37.000Z</time></trkpt>
        <trkpt lat="29.6785195" lon="104.737863"><ele>547.3</ele><time>2026-01-30T21:33:49.000Z</time></trkpt>
        <trkpt lat="29.6785216" lon="104.7379749"><ele>546.59</ele><time>2026-01-30T21:33:57.000Z</time></trkpt>
        <trkpt lat="29.6785434" lon="104.7380921"><ele>545.64</ele><time>2026-01-30T21:34:05.000Z</time></trkpt>
        <trkpt lat="29.6785908" lon="104.7381946"><ele>544.56</ele><time>2026-01-30T21:34:17.000Z</time></trkpt>
        <trkpt lat="29.6786666" lon="104.7382667"><ele>543.78</ele><time>2026-01-30T21:34:27.000Z</time></trkpt>
        <trkpt lat="29.6787675" lon="104.7383021"><ele>544.17</ele><time>2026-01-30T21:34:37.000Z</time></trkpt>
        <trkpt lat="29.6788653" lon="104.7383303"><ele>544.61</ele><time>2026-01-30T21:34:47.000Z</time></trkpt>
        <trkpt lat="29.6789534" lon="104.7382841"><ele>544.57</ele><time>2026-01-30T21:34:57.000Z</time></trkpt>
        <trkpt lat="29.679021" lon="104.7382031"><ele>544.54</ele><time>2026-01-30T21:35:09.000Z</time></trkpt>
        <trkpt lat="29.679102" lon="104.7381464"><ele>544.56</ele><time>2026-01-30T21:35:25.000Z</time></trkpt>
        <trkpt lat="29.679189" lon="104.7381712"><ele>544.43</ele><time>2026-01-30T21:35:37.000Z</time></trkpt>
        <trkpt lat="29.6792655" lon="104.7382338"><ele>544.46</ele><time>2026-01-30T21:35:55.000Z</time></trkpt>
        <trkpt lat="29.6793306" lon="104.7383211"><ele>545.57</ele><time>2026-01-30T21:36:17.000Z</time></trkpt>
        <trkpt lat="29.6793832" lon="104.7384283"><ele>547.64</ele><time>2026-01-30T21:36:41.000Z</time></trkpt>
        <trkpt lat="29.6793978" lon="104.7385414"><ele>550.38</ele><time>2026-01-30T21:37:01.000Z</time></trkpt>
        <trkpt lat="29.6794043" lon="104.7386573"><ele>552.73</ele><time>2026-01-30T21:37:23.000Z</time></trkpt>
        <trkpt lat="29.6794742" lon="104.7386811"><ele>556.24</ele><time>2026-01-30T21:38:05.000Z</time></trkpt>
        <trkpt lat="29.6795836" lon="104.7387027"><ele>559.77</ele><time>2026-01-30T21:38:58.000Z</time></trkpt>
        <trkpt lat="29.6796729" lon="104.7386521"><ele>562.99</ele><time>2026-01-30T21:39:19.000Z</time></trkpt>
        <trkpt lat="29.6797531" lon="104.7385855"><ele>566.27</ele><time>2026-01-30T21:39:29.000Z</time></trkpt>
        <trkpt lat="29.6798405" lon="104.7385191"><ele>568.66</ele><time>2026-01-30T21:39:45.000Z</time></trkpt>
        <trkpt lat="29.6799338" lon="104.7384729"><ele>571.44</ele><time>2026-01-30T21:39:59.000Z</time></trkpt>
        <trkpt lat="29.6800294" lon="104.7384342"><ele>573.86</ele><time>2026-01-30T21:40:17.000Z</time></trkpt>
        <trkpt lat="29.6801242" lon="104.7384023"><ele>576.55</ele><time>2026-01-30T21:40:35.000Z</time></trkpt>
        <trkpt lat="29.6802162" lon="104.7383564"><ele>579.34</ele><time>2026-01-30T21:40:49.000Z</time></trkpt>
        <trkpt lat="29.6803144" lon="104.7383371"><ele>582.07</ele><time>2026-01-30T21:41:07.000Z</time></trkpt>
        <trkpt lat="29.6804077" lon="104.7383142"><ele>585.23</ele><time>2026-01-30T21:41:21.000Z</time></trkpt>
        <trkpt lat="29.6805041" lon="104.7383239"><ele>588.52</ele><time>2026-01-30T21:41:33.000Z</time></trkpt>
        <trkpt lat="29.680601" lon="104.7383512"><ele>591.09</ele><time>2026-01-30T21:41:43.000Z</time></trkpt>
        <trkpt lat="29.6806943" lon="104.7383955"><ele>592.97</ele><time>2026-01-30T21:41:53.000Z</time></trkpt>
        <trkpt lat="29.68079" lon="104.7384283"><ele>594.38</ele><time>2026-01-30T21:42:05.000Z</time></trkpt>
        <trkpt lat="29.6808937" lon="104.7384424"><ele>595.34</ele><time>2026-01-30T21:42:15.000Z</time></trkpt>
        <trkpt lat="29.6810016" lon="104.7384535"><ele>596.04</ele><time>2026-01-30T21:42:25.000Z</time></trkpt>
        <trkpt lat="29.6811054" lon="104.7384366"><ele>596.56</ele><time>2026-01-30T21:42:35.000Z</time></trkpt>
        <trkpt lat="29.6812042" lon="104.7384344"><ele>596.93</ele><time>2026-01-30T21:42:45.000Z</time></trkpt>
        <trkpt lat="29.6812965" lon="104.7384369"><ele>595.37</ele><time>2026-01-30T21:42:55.000Z</time></trkpt>
        <trkpt lat="29.6813862" lon="104.7384372"><ele>594.43</ele><time>2026-01-30T21:43:07.000Z</time></trkpt>
        <trkpt lat="29.6814756" lon="104.7384606"><ele>594.38</ele><time>2026-01-30T21:43:23.000Z</time></trkpt>
        <trkpt lat="29.6815641" lon="104.7384597"><ele>597.61</ele><time>2026-01-30T21:45:09.000Z</time></trkpt>
        <trkpt lat="29.6816572" lon="104.7384874"><ele>600.07</ele><time>2026-01-30T21:51:43.000Z</time></trkpt>
        <trkpt lat="29.6817115" lon="104.7385831"><ele>604.95</ele><time>2026-01-30T21:52:15.000Z</time></trkpt>
        <trkpt lat="29.6817954" lon="104.7386254"><ele>612.64</ele><time>2026-01-30T21:53:15.000Z</time></trkpt>
        <trkpt lat="29.681857" lon="104.7387089"><ele>619.3</ele><time>2026-01-30T21:54:41.000Z</time></trkpt>
        <trkpt lat="29.6819426" lon="104.7387572"><ele>623.19</ele><time>2026-01-30T21:55:13.000Z</time></trkpt>
        <trkpt lat="29.6820426" lon="104.7387781"><ele>626.38</ele><time>2026-01-30T21:55:28.000Z</time></trkpt>
        <trkpt lat="29.6821429" lon="104.7387876"><ele>629.6</ele><time>2026-01-30T21:55:41.000Z</time></trkpt>
        <trkpt lat="29.6822481" lon="104.7387781"><ele>632.98</ele><time>2026-01-30T21:55:59.000Z</time></trkpt>
        <trkpt lat="29.6823427" lon="104.7387454"><ele>636.51</ele><time>2026-01-30T21:56:11.000Z</time></trkpt>
        <trkpt lat="29.6824404" lon="104.7387125"><ele>638.83</ele><time>2026-01-30T21:56:21.000Z</time></trkpt>
        <trkpt lat="29.6825361" lon="104.7386803"><ele>640.49</ele><time>2026-01-30T21:56:35.000Z</time></trkpt>
        <trkpt lat="29.6826304" lon="104.738666"><ele>642.03</ele><time>2026-01-30T21:57:09.000Z</time></trkpt>
        <trkpt lat="29.6827219" lon="104.7386666"><ele>642.61</ele><time>2026-01-30T21:57:21.000Z</time></trkpt>
        <trkpt lat="29.6827918" lon="104.7386087"><ele>642.4</ele><time>2026-01-30T21:58:35.000Z</time></trkpt>
        <trkpt lat="29.682857" lon="104.738681"><ele>644.17</ele><time>2026-01-30T22:00:25.000Z</time></trkpt>
        <trkpt lat="29.6829478" lon="104.7386668"><ele>643.99</ele><time>2026-01-30T22:00:39.000Z</time></trkpt>
        <trkpt lat="29.683042" lon="104.7386363"><ele>642.91</ele><time>2026-01-30T22:00:49.000Z</time></trkpt>
        <trkpt lat="29.6831498" lon="104.7386276"><ele>641.92</ele><time>2026-01-30T22:00:59.000Z</time></trkpt>
        <trkpt lat="29.6832465" lon="104.7386553"><ele>641.17</ele><time>2026-01-30T22:01:11.000Z</time></trkpt>
        <trkpt lat="29.6833347" lon="104.7387211"><ele>640.39</ele><time>2026-01-30T22:01:25.000Z</time></trkpt>
        <trkpt lat="29.6834139" lon="104.7387987"><ele>640.12</ele><time>2026-01-30T22:01:43.000Z</time></trkpt>
        <trkpt lat="29.6834995" lon="104.7388679"><ele>638.92</ele><time>2026-01-30T22:01:55.000Z</time></trkpt>
        <trkpt lat="29.6835333" lon="104.73897"><ele>638.74</ele><time>2026-01-30T22:02:09.000Z</time></trkpt>
        <trkpt lat="29.683613" lon="104.7390134"><ele>638.15</ele><time>2026-01-30T22:02:39.000Z</time></trkpt>
        <trkpt lat="29.6837067" lon="104.7389821"><ele>637.39</ele><time>2026-01-30T22:03:15.000Z</time></trkpt>
        <trkpt lat="29.6838048" lon="104.7389582"><ele>640.21</ele><time>2026-01-30T22:03:35.000Z</time></trkpt>
        <trkpt lat="29.6839119" lon="104.7389206"><ele>641.33</ele><time>2026-01-30T22:03:47.000Z</time></trkpt>
        <trkpt lat="29.6839992" lon="104.7388662"><ele>641.24</ele><time>2026-01-30T22:04:03.000Z</time></trkpt>
        <trkpt lat="29.6840649" lon="104.7387856"><ele>641.36</ele><time>2026-01-30T22:04:15.000Z</time></trkpt>
        <trkpt lat="29.6841129" lon="104.7386786"><ele>641.72</ele><time>2026-01-30T22:04:25.000Z</time></trkpt>
        <trkpt lat="29.6841492" lon="104.7385732"><ele>641.84</ele><time>2026-01-30T22:04:35.000Z</time></trkpt>
        <trkpt lat="29.6841856" lon="104.738469"><ele>642.19</ele><time>2026-01-30T22:04:55.000Z</time></trkpt>
        <trkpt lat="29.6842508" lon="104.7383819"><ele>643.03</ele><time>2026-01-30T22:05:11.000Z</time></trkpt>
        <trkpt lat="29.6843236" lon="104.7382869"><ele>643.43</ele><time>2026-01-30T22:05:37.000Z</time></trkpt>
        <trkpt lat="29.6844062" lon="104.7382304"><ele>643.4</ele><time>2026-01-30T22:05:45.000Z</time></trkpt>
        <trkpt lat="29.6844941" lon="104.7381974"><ele>643.26</ele><time>2026-01-30T22:05:53.000Z</time></trkpt>
        <trkpt lat="29.6845921" lon="104.738154"><ele>643.32</ele><time>2026-01-30T22:06:01.000Z</time></trkpt>
        <trkpt lat="29.6846782" lon="104.7380945"><ele>643.49</ele><time>2026-01-30T22:06:13.000Z</time></trkpt>
        <trkpt lat="29.6847622" lon="104.7380247"><ele>641.6</ele><time>2026-01-30T22:06:29.000Z</time></trkpt>
        <trkpt lat="29.6848549" lon="104.7379559"><ele>642.91</ele><time>2026-01-30T22:06:41.000Z</time></trkpt>
        <trkpt lat="29.6848784" lon="104.7379274"><ele>643.33</ele><time>2026-01-30T22:06:49.000Z</time></trkpt>
        <trkpt lat="29.6849274" lon="104.7378592"><ele>643.51</ele><time>2026-01-30T22:06:59.000Z</time></trkpt>
        <trkpt lat="29.6849778" lon="104.737772"><ele>643.36</ele><time>2026-01-30T22:07:11.000Z</time></trkpt>
        <trkpt lat="29.6849986" lon="104.73766"><ele>643.75</ele><time>2026-01-30T22:07:33.000Z</time></trkpt>
        <trkpt lat="29.6849945" lon="104.7375451"><ele>644.43</ele><time>2026-01-30T22:07:45.000Z</time></trkpt>
        <trkpt lat="29.6849516" lon="104.7374388"><ele>645.3</ele><time>2026-01-30T22:07:57.000Z</time></trkpt>
        <trkpt lat="29.6849064" lon="104.7373267"><ele>646.06</ele><time>2026-01-30T22:08:09.000Z</time></trkpt>
        <trkpt lat="29.6848681" lon="104.7372206"><ele>646.59</ele><time>2026-01-30T22:08:19.000Z</time></trkpt>
        <trkpt lat="29.6848273" lon="104.7371119"><ele>646.68</ele><time>2026-01-30T22:08:29.000Z</time></trkpt>
        <trkpt lat="29.6847859" lon="104.7370112"><ele>646.69</ele><time>2026-01-30T22:08:37.000Z</time></trkpt>
        <trkpt lat="29.6847657" lon="104.7369093"><ele>646.95</ele><time>2026-01-30T22:08:45.000Z</time></trkpt>
        <trkpt lat="29.6848072" lon="104.7368043"><ele>647.65</ele><time>2026-01-30T22:08:55.000Z</time></trkpt>
        <trkpt lat="29.6848856" lon="104.736726"><ele>648.73</ele><time>2026-01-30T22:09:05.000Z</time></trkpt>
        <trkpt lat="29.6849775" lon="104.7366545"><ele>650.09</ele><time>2026-01-30T22:09:17.000Z</time></trkpt>
        <trkpt lat="29.6850583" lon="104.7365834"><ele>650.97</ele><time>2026-01-30T22:09:29.000Z</time></trkpt>
        <trkpt lat="29.6851146" lon="104.7364992"><ele>651.8</ele><time>2026-01-30T22:09:45.000Z</time></trkpt>
        <trkpt lat="29.6851819" lon="104.7364142"><ele>652.87</ele><time>2026-01-30T22:09:57.000Z</time></trkpt>
        <trkpt lat="29.6852567" lon="104.7363392"><ele>654.37</ele><time>2026-01-30T22:10:07.000Z</time></trkpt>
        <trkpt lat="29.6853207" lon="104.7362472"><ele>655.92</ele><time>2026-01-30T22:10:17.000Z</time></trkpt>
        <trkpt lat="29.6853975" lon="104.7361535"><ele>657.27</ele><time>2026-01-30T22:10:28.000Z</time></trkpt>
        <trkpt lat="29.685444" lon="104.7360343"><ele>657.86</ele><time>2026-01-30T22:10:37.000Z</time></trkpt>
        <trkpt lat="29.6854738" lon="104.7359165"><ele>657.8</ele><time>2026-01-30T22:10:43.000Z</time></trkpt>
        <trkpt lat="29.6854154" lon="104.7358256"><ele>657.3</ele><time>2026-01-30T22:10:53.000Z</time></trkpt>
        <trkpt lat="29.6853229" lon="104.7357803"><ele>656.66</ele><time>2026-01-30T22:11:01.000Z</time></trkpt>
        <trkpt lat="29.6852282" lon="104.7357423"><ele>656.31</ele><time>2026-01-30T22:11:09.000Z</time></trkpt>
        <trkpt lat="29.6852744" lon="104.7357221"><ele>656.13</ele><time>2026-01-30T22:11:25.000Z</time></trkpt>
        <trkpt lat="29.6853721" lon="104.735722"><ele>655.99</ele><time>2026-01-30T22:11:33.000Z</time></trkpt>
        <trkpt lat="29.6854913" lon="104.7357281"><ele>655.6</ele><time>2026-01-30T22:11:41.000Z</time></trkpt>
        <trkpt lat="29.6856003" lon="104.7357046"><ele>654.8</ele><time>2026-01-30T22:11:51.000Z</time></trkpt>
        <trkpt lat="29.6857144" lon="104.7356637"><ele>653.98</ele><time>2026-01-30T22:12:01.000Z</time></trkpt>
        <trkpt lat="29.6858181" lon="104.735601"><ele>653.6</ele><time>2026-01-30T22:12:09.000Z</time></trkpt>
        <trkpt lat="29.6859096" lon="104.7355313"><ele>653.52</ele><time>2026-01-30T22:12:17.000Z</time></trkpt>
        <trkpt lat="29.6859892" lon="104.7354514"><ele>653.8</ele><time>2026-01-30T22:12:25.000Z</time></trkpt>
        <trkpt lat="29.6860639" lon="104.7353787"><ele>653.75</ele><time>2026-01-30T22:12:33.000Z</time></trkpt>
        <trkpt lat="29.6861352" lon="104.735304"><ele>653.43</ele><time>2026-01-30T22:12:41.000Z</time></trkpt>
        <trkpt lat="29.6861963" lon="104.7352229"><ele>652.75</ele><time>2026-01-30T22:12:49.000Z</time></trkpt>
        <trkpt lat="29.6862423" lon="104.7351221"><ele>652.15</ele><time>2026-01-30T22:12:57.000Z</time></trkpt>
        <trkpt lat="29.6862858" lon="104.7350224"><ele>651.53</ele><time>2026-01-30T22:13:05.000Z</time></trkpt>
        <trkpt lat="29.6863363" lon="104.734917"><ele>651.13</ele><time>2026-01-30T22:13:13.000Z</time></trkpt>
        <trkpt lat="29.6863748" lon="104.7347983"><ele>650.91</ele><time>2026-01-30T22:13:23.000Z</time></trkpt>
        <trkpt lat="29.6863989" lon="104.7346818"><ele>651.31</ele><time>2026-01-30T22:13:31.000Z</time></trkpt>
        <trkpt lat="29.6863914" lon="104.734552"><ele>651.76</ele><time>2026-01-30T22:13:39.000Z</time></trkpt>
        <trkpt lat="29.6863717" lon="104.7344208"><ele>652.11</ele><time>2026-01-30T22:13:47.000Z</time></trkpt>
        <trkpt lat="29.6863757" lon="104.7343095"><ele>651.98</ele><time>2026-01-30T22:13:57.000Z</time></trkpt>
        <trkpt lat="29.6864307" lon="104.7342257"><ele>650.52</ele><time>2026-01-30T22:14:05.000Z</time></trkpt>
        <trkpt lat="29.6865319" lon="104.7342271"><ele>651</ele><time>2026-01-30T22:14:15.000Z</time></trkpt>
        <trkpt lat="29.6866328" lon="104.7341732"><ele>650.05</ele><time>2026-01-30T22:14:23.000Z</time></trkpt>
        <trkpt lat="29.6867116" lon="104.7340745"><ele>651</ele><time>2026-01-30T22:14:33.000Z</time></trkpt>
        <trkpt lat="29.6867951" lon="104.7340117"><ele>651.14</ele><time>2026-01-30T22:14:41.000Z</time></trkpt>
        <trkpt lat="29.6868857" lon="104.7339877"><ele>650.55</ele><time>2026-01-30T22:14:49.000Z</time></trkpt>
        <trkpt lat="29.6869776" lon="104.733967"><ele>649.68</ele><time>2026-01-30T22:14:59.000Z</time></trkpt>
        <trkpt lat="29.6870677" lon="104.7339409"><ele>649.08</ele><time>2026-01-30T22:15:07.000Z</time></trkpt>
        <trkpt lat="29.6871644" lon="104.7339101"><ele>648.58</ele><time>2026-01-30T22:15:16.000Z</time></trkpt>
        <trkpt lat="29.6872623" lon="104.7338854"><ele>648.22</ele><time>2026-01-30T22:15:23.000Z</time></trkpt>
        <trkpt lat="29.6873652" lon="104.7338373"><ele>648.02</ele><time>2026-01-30T22:15:33.000Z</time></trkpt>
        <trkpt lat="29.6874605" lon="104.7337726"><ele>648.15</ele><time>2026-01-30T22:15:41.000Z</time></trkpt>
        <trkpt lat="29.6875481" lon="104.7337123"><ele>647.94</ele><time>2026-01-30T22:15:49.000Z</time></trkpt>
        <trkpt lat="29.6876346" lon="104.7336505"><ele>648.05</ele><time>2026-01-30T22:15:57.000Z</time></trkpt>
        <trkpt lat="29.6877301" lon="104.7336046"><ele>648.05</ele><time>2026-01-30T22:16:05.000Z</time></trkpt>
        <trkpt lat="29.687831" lon="104.7335649"><ele>647.86</ele><time>2026-01-30T22:16:15.000Z</time></trkpt>
        <trkpt lat="29.6879232" lon="104.7335101"><ele>648.18</ele><time>2026-01-30T22:16:51.000Z</time></trkpt>
        <trkpt lat="29.6879741" lon="104.7334128"><ele>648.55</ele><time>2026-01-30T22:17:23.000Z</time></trkpt>
        <trkpt lat="29.6879967" lon="104.7333059"><ele>648.68</ele><time>2026-01-30T22:17:33.000Z</time></trkpt>
        <trkpt lat="29.6880272" lon="104.7332047"><ele>647.4</ele><time>2026-01-30T22:17:47.000Z</time></trkpt>
        <trkpt lat="29.688076" lon="104.733102"><ele>645.74</ele><time>2026-01-30T22:17:59.000Z</time></trkpt>
        <trkpt lat="29.6881276" lon="104.7330089"><ele>643.49</ele><time>2026-01-30T22:18:11.000Z</time></trkpt>
        <trkpt lat="29.6881684" lon="104.73291"><ele>640.91</ele><time>2026-01-30T22:18:27.000Z</time></trkpt>
        <trkpt lat="29.6882231" lon="104.7328075"><ele>637.6</ele><time>2026-01-30T22:19:19.000Z</time></trkpt>
        <trkpt lat="29.6883051" lon="104.7327424"><ele>633.28</ele><time>2026-01-30T22:19:31.000Z</time></trkpt>
        <trkpt lat="29.6883994" lon="104.7327205"><ele>629.07</ele><time>2026-01-30T22:20:11.000Z</time></trkpt>
        <trkpt lat="29.6884942" lon="104.7327008"><ele>624.52</ele><time>2026-01-30T22:20:29.000Z</time></trkpt>
        <trkpt lat="29.6885734" lon="104.7326501"><ele>621.98</ele><time>2026-01-30T22:20:43.000Z</time></trkpt>
        <trkpt lat="29.6885563" lon="104.7325684"><ele>619.43</ele><time>2026-01-30T22:21:07.000Z</time></trkpt>
        <trkpt lat="29.6884724" lon="104.732508"><ele>615.74</ele><time>2026-01-30T22:21:31.000Z</time></trkpt>
        <trkpt lat="29.6884062" lon="104.7324215"><ele>611.96</ele><time>2026-01-30T22:22:23.000Z</time></trkpt>
        <trkpt lat="29.6883765" lon="104.7323136"><ele>604.77</ele><time>2026-01-30T22:22:33.000Z</time></trkpt>
        <trkpt lat="29.6883198" lon="104.7322288"><ele>600.33</ele><time>2026-01-30T22:22:46.000Z</time></trkpt>
        <trkpt lat="29.6882611" lon="104.732131"><ele>596.23</ele><time>2026-01-30T22:23:53.000Z</time></trkpt>
        <trkpt lat="29.6882285" lon="104.7320308"><ele>591.96</ele><time>2026-01-30T22:24:09.000Z</time></trkpt>
        <trkpt lat="29.6882007" lon="104.7319136"><ele>587.37</ele><time>2026-01-30T22:24:29.000Z</time></trkpt>
        <trkpt lat="29.6881645" lon="104.7318074"><ele>583.77</ele><time>2026-01-30T22:24:39.000Z</time></trkpt>
        <trkpt lat="29.6881037" lon="104.7317076"><ele>579.79</ele><time>2026-01-30T22:25:13.000Z</time></trkpt>
        <trkpt lat="29.688039" lon="104.7316233"><ele>575.18</ele><time>2026-01-30T22:25:21.000Z</time></trkpt>
        <trkpt lat="29.6879667" lon="104.7315494"><ele>571.24</ele><time>2026-01-30T22:25:39.000Z</time></trkpt>
        <trkpt lat="29.6878781" lon="104.7314928"><ele>568.41</ele><time>2026-01-30T22:25:49.000Z</time></trkpt>
        <trkpt lat="29.6877848" lon="104.731433"><ele>566.35</ele><time>2026-01-30T22:26:15.000Z</time></trkpt>
        <trkpt lat="29.6877274" lon="104.731346"><ele>563.38</ele><time>2026-01-30T22:27:05.000Z</time></trkpt>
        <trkpt lat="29.6876572" lon="104.7312655"><ele>559.66</ele><time>2026-01-30T22:27:19.000Z</time></trkpt>
        <trkpt lat="29.6875638" lon="104.7312516"><ele>556.36</ele><time>2026-01-30T22:27:35.000Z</time></trkpt>
        <trkpt lat="29.6875739" lon="104.7311885"><ele>552.46</ele><time>2026-01-30T22:28:27.000Z</time></trkpt>
        <trkpt lat="29.6876282" lon="104.7310971"><ele>546.27</ele><time>2026-01-30T22:28:45.000Z</time></trkpt>
        <trkpt lat="29.6876364" lon="104.7309923"><ele>541.22</ele><time>2026-01-30T22:29:23.000Z</time></trkpt>
        <trkpt lat="29.6876006" lon="104.7308889"><ele>536.65</ele><time>2026-01-30T22:29:33.000Z</time></trkpt>
        <trkpt lat="29.6875153" lon="104.7308688"><ele>531.95</ele><time>2026-01-30T22:30:01.000Z</time></trkpt>
        <trkpt lat="29.6874275" lon="104.7309218"><ele>527.54</ele><time>2026-01-30T22:30:21.000Z</time></trkpt>
        <trkpt lat="29.6873486" lon="104.7310086"><ele>523.71</ele><time>2026-01-30T22:30:31.000Z</time></trkpt>
        <trkpt lat="29.6872913" lon="104.7310607"><ele>519.9</ele><time>2026-01-30T22:30:41.000Z</time></trkpt>
        <trkpt lat="29.687216" lon="104.7311144"><ele>516.82</ele><time>2026-01-30T22:31:01.000Z</time></trkpt>
        <trkpt lat="29.6871328" lon="104.7311752"><ele>515.03</ele><time>2026-01-30T22:31:13.000Z</time></trkpt>
        <trkpt lat="29.6871449" lon="104.7311215"><ele>513.21</ele><time>2026-01-30T22:31:29.000Z</time></trkpt>
        <trkpt lat="29.6871112" lon="104.7310282"><ele>510.35</ele><time>2026-01-30T22:31:41.000Z</time></trkpt>
        <trkpt lat="29.6870922" lon="104.7309099"><ele>508.02</ele><time>2026-01-30T22:31:55.000Z</time></trkpt>
        <trkpt lat="29.6871041" lon="104.7307909"><ele>505.8</ele><time>2026-01-30T22:32:15.000Z</time></trkpt>
        <trkpt lat="29.6870701" lon="104.7306891"><ele>504.24</ele><time>2026-01-30T22:32:27.000Z</time></trkpt>
        <trkpt lat="29.6869888" lon="104.730635"><ele>503.22</ele><time>2026-01-30T22:32:33.000Z</time></trkpt>
        <trkpt lat="29.6868794" lon="104.7306242"><ele>501.3</ele><time>2026-01-30T22:32:41.000Z</time></trkpt>
        <trkpt lat="29.6867778" lon="104.730624"><ele>499.48</ele><time>2026-01-30T22:32:51.000Z</time></trkpt>
        <trkpt lat="29.6866764" lon="104.7306068"><ele>498.29</ele><time>2026-01-30T22:33:07.000Z</time></trkpt>
        <trkpt lat="29.6865792" lon="104.7305776"><ele>498.67</ele><time>2026-01-30T22:33:17.000Z</time></trkpt>
        <trkpt lat="29.6864841" lon="104.7305913"><ele>498.99</ele><time>2026-01-30T22:33:31.000Z</time></trkpt>
        <trkpt lat="29.6864281" lon="104.7306219"><ele>499.36</ele><time>2026-01-30T22:33:39.000Z</time></trkpt>
        <trkpt lat="29.6863451" lon="104.730613"><ele>499.31</ele><time>2026-01-30T22:33:51.000Z</time></trkpt>
        <trkpt lat="29.6863152" lon="104.7306052"><ele>499.58</ele><time>2026-01-30T22:33:53.000Z</time></trkpt>
        <trkpt lat="29.6862473" lon="104.7305718"><ele>499.89</ele><time>2026-01-30T22:34:07.000Z</time></trkpt>
        <trkpt lat="29.6861652" lon="104.730533"><ele>500.65</ele><time>2026-01-30T22:34:23.000Z</time></trkpt>
        <trkpt lat="29.6860652" lon="104.7305182"><ele>501.41</ele><time>2026-01-30T22:34:43.000Z</time></trkpt>
        <trkpt lat="29.6859636" lon="104.730527"><ele>501.45</ele><time>2026-01-30T22:35:01.000Z</time></trkpt>
        <trkpt lat="29.6858664" lon="104.7304856"><ele>500.19</ele><time>2026-01-30T22:35:13.000Z</time></trkpt>
        <trkpt lat="29.68582" lon="104.7304672"><ele>499.1</ele><time>2026-01-30T22:35:17.000Z</time></trkpt>
        <trkpt lat="29.6857432" lon="104.730456"><ele>498.12</ele><time>2026-01-30T22:35:27.000Z</time></trkpt>
        <trkpt lat="29.6856518" lon="104.7304117"><ele>496.12</ele><time>2026-01-30T22:35:57.000Z</time></trkpt>
        <trkpt lat="29.6856217" lon="104.7303906"><ele>494.44</ele><time>2026-01-30T22:35:59.000Z</time></trkpt>
        <trkpt lat="29.6855589" lon="104.7303526"><ele>493.59</ele><time>2026-01-30T22:36:17.000Z</time></trkpt>
        <trkpt lat="29.6854977" lon="104.7302749"><ele>491.49</ele><time>2026-01-30T22:36:45.000Z</time></trkpt>
        <trkpt lat="29.6854257" lon="104.7302058"><ele>490.63</ele><time>2026-01-30T22:37:09.000Z</time></trkpt>
        <trkpt lat="29.6853581" lon="104.7301262"><ele>489.96</ele><time>2026-01-30T22:37:45.000Z</time></trkpt>
        <trkpt lat="29.6852733" lon="104.7300626"><ele>487.74</ele><time>2026-01-30T22:37:59.000Z</time></trkpt>
        <trkpt lat="29.6851897" lon="104.7300002"><ele>486.86</ele><time>2026-01-30T22:38:15.000Z</time></trkpt>
        <trkpt lat="29.6850981" lon="104.7299451"><ele>485.68</ele><time>2026-01-30T22:38:35.000Z</time></trkpt>
        <trkpt lat="29.6850046" lon="104.7299627"><ele>485.16</ele><time>2026-01-30T22:38:53.000Z</time></trkpt>
        <trkpt lat="29.6849143" lon="104.7299992"><ele>484.49</ele><time>2026-01-30T22:39:13.000Z</time></trkpt>
        <trkpt lat="29.6848171" lon="104.7299991"><ele>483.52</ele><time>2026-01-30T22:39:29.000Z</time></trkpt>
        <trkpt lat="29.6847236" lon="104.7300378"><ele>483.52</ele><time>2026-01-30T22:39:43.000Z</time></trkpt>
        <trkpt lat="29.6846294" lon="104.7300603"><ele>483.34</ele><time>2026-01-30T22:40:03.000Z</time></trkpt>
        <trkpt lat="29.6845441" lon="104.7301188"><ele>483.02</ele><time>2026-01-30T22:40:17.000Z</time></trkpt>
        <trkpt lat="29.6844559" lon="104.7301793"><ele>483.23</ele><time>2026-01-30T22:40:33.000Z</time></trkpt>
        <trkpt lat="29.6843918" lon="104.7302628"><ele>483.56</ele><time>2026-01-30T22:40:47.000Z</time></trkpt>
        <trkpt lat="29.6843345" lon="104.7303483"><ele>483.51</ele><time>2026-01-30T22:40:59.000Z</time></trkpt>
        <trkpt lat="29.6842951" lon="104.73045"><ele>483.27</ele><time>2026-01-30T22:41:13.000Z</time></trkpt>
        <trkpt lat="29.6842404" lon="104.7305348"><ele>483.07</ele><time>2026-01-30T22:41:25.000Z</time></trkpt>
        <trkpt lat="29.6841906" lon="104.7306308"><ele>482.53</ele><time>2026-01-30T22:41:45.000Z</time></trkpt>
        <trkpt lat="29.6842007" lon="104.7307347"><ele>481.44</ele><time>2026-01-30T22:42:03.000Z</time></trkpt>
        <trkpt lat="29.6842318" lon="104.730842"><ele>481.59</ele><time>2026-01-30T22:42:31.000Z</time></trkpt>
        <trkpt lat="29.6842362" lon="104.7309528"><ele>482.3</ele><time>2026-01-30T22:42:45.000Z</time></trkpt>
        <trkpt lat="29.6842233" lon="104.731066"><ele>482.92</ele><time>2026-01-30T22:42:57.000Z</time></trkpt>
        <trkpt lat="29.6842238" lon="104.7311745"><ele>482.31</ele><time>2026-01-30T22:43:15.000Z</time></trkpt>
        <trkpt lat="29.6841806" lon="104.731268"><ele>480.51</ele><time>2026-01-30T22:43:37.000Z</time></trkpt>
        <trkpt lat="29.6841212" lon="104.7313612"><ele>479.31</ele><time>2026-01-30T22:44:21.000Z</time></trkpt>
        <trkpt lat="29.6840496" lon="104.7313064"><ele>480.17</ele><time>2026-01-30T22:44:37.000Z</time></trkpt>
        <trkpt lat="29.6839995" lon="104.7311922"><ele>481.63</ele><time>2026-01-30T22:44:49.000Z</time></trkpt>
        <trkpt lat="29.6839496" lon="104.7310707"><ele>483.01</ele><time>2026-01-30T22:45:09.000Z</time></trkpt>
        <trkpt lat="29.6839" lon="104.7309603"><ele>484.07</ele><time>2026-01-30T22:45:21.000Z</time></trkpt>
        <trkpt lat="29.6838561" lon="104.730858"><ele>485.19</ele><time>2026-01-30T22:45:33.000Z</time></trkpt>
        <trkpt lat="29.6838058" lon="104.7307611"><ele>485.98</ele><time>2026-01-30T22:45:59.000Z</time></trkpt>
        <trkpt lat="29.6837254" lon="104.7306895"><ele>485.73</ele><time>2026-01-30T22:46:25.000Z</time></trkpt>
        <trkpt lat="29.6836484" lon="104.7306166"><ele>486.57</ele><time>2026-01-30T22:46:35.000Z</time></trkpt>
        <trkpt lat="29.6836063" lon="104.7305815"><ele>487.33</ele><time>2026-01-30T22:46:41.000Z</time></trkpt>
        <trkpt lat="29.6835181" lon="104.7305295"><ele>488.11</ele><time>2026-01-30T22:46:51.000Z</time></trkpt>
        <trkpt lat="29.6834239" lon="104.7305084"><ele>488.77</ele><time>2026-01-30T22:47:03.000Z</time></trkpt>
        <trkpt lat="29.6833253" lon="104.7305005"><ele>488.51</ele><time>2026-01-30T22:47:17.000Z</time></trkpt>
        <trkpt lat="29.6832431" lon="104.730456"><ele>488.31</ele><time>2026-01-30T22:47:25.000Z</time></trkpt>
        <trkpt lat="29.6831835" lon="104.7303682"><ele>488.01</ele><time>2026-01-30T22:47:47.000Z</time></trkpt>
        <trkpt lat="29.6832575" lon="104.7302781"><ele>487.72</ele><time>2026-01-30T22:49:25.000Z</time></trkpt>
        <trkpt lat="29.6833333" lon="104.7301987"><ele>489.01</ele><time>2026-01-30T22:58:29.000Z</time></trkpt>
        <trkpt lat="29.6834305" lon="104.7301638"><ele>484.95</ele><time>2026-01-30T22:58:39.000Z</time></trkpt>
        <trkpt lat="29.6835241" lon="104.7301066"><ele>483.11</ele><time>2026-01-30T22:58:49.000Z</time></trkpt>
        <trkpt lat="29.6836133" lon="104.730067"><ele>481.72</ele><time>2026-01-30T22:58:59.000Z</time></trkpt>
        <trkpt lat="29.6836805" lon="104.7299845"><ele>480.31</ele><time>2026-01-30T22:59:11.000Z</time></trkpt>
        <trkpt lat="29.6837322" lon="104.7298776"><ele>479.68</ele><time>2026-01-30T22:59:23.000Z</time></trkpt>
        <trkpt lat="29.6837842" lon="104.7297837"><ele>479.25</ele><time>2026-01-30T22:59:31.000Z</time></trkpt>
        <trkpt lat="29.6838387" lon="104.7296979"><ele>479.15</ele><time>2026-01-30T22:59:41.000Z</time></trkpt>
        <trkpt lat="29.6839051" lon="104.7296195"><ele>479.67</ele><time>2026-01-30T22:59:49.000Z</time></trkpt>
        <trkpt lat="29.6839701" lon="104.7295353"><ele>480.31</ele><time>2026-01-30T22:59:59.000Z</time></trkpt>
        <trkpt lat="29.6840201" lon="104.72944"><ele>480.26</ele><time>2026-01-30T23:00:19.000Z</time></trkpt>
        <trkpt lat="29.6840839" lon="104.7293665"><ele>481.13</ele><time>2026-01-30T23:00:29.000Z</time></trkpt>
        <trkpt lat="29.6841642" lon="104.7292946"><ele>482.09</ele><time>2026-01-30T23:00:45.000Z</time></trkpt>
        <trkpt lat="29.6842608" lon="104.7292423"><ele>483.41</ele><time>2026-01-30T23:00:55.000Z</time></trkpt>
        <trkpt lat="29.684354" lon="104.7292063"><ele>484.52</ele><time>2026-01-30T23:01:05.000Z</time></trkpt>
        <trkpt lat="29.6844506" lon="104.7291808"><ele>485.53</ele><time>2026-01-30T23:01:17.000Z</time></trkpt>
        <trkpt lat="29.684527" lon="104.7291244"><ele>487.35</ele><time>2026-01-30T23:01:28.000Z</time></trkpt>
        <trkpt lat="29.6846059" lon="104.7290707"><ele>489.17</ele><time>2026-01-30T23:01:35.000Z</time></trkpt>
        <trkpt lat="29.6846556" lon="104.7289681"><ele>490.32</ele><time>2026-01-30T23:01:43.000Z</time></trkpt>
        <trkpt lat="29.684657" lon="104.7288432"><ele>491.1</ele><time>2026-01-30T23:01:51.000Z</time></trkpt>
        <trkpt lat="29.6846284" lon="104.7287172"><ele>491.63</ele><time>2026-01-30T23:02:01.000Z</time></trkpt>
        <trkpt lat="29.6845628" lon="104.7286238"><ele>491.86</ele><time>2026-01-30T23:02:09.000Z</time></trkpt>
        <trkpt lat="29.6844947" lon="104.7285253"><ele>492.03</ele><time>2026-01-30T23:02:27.000Z</time></trkpt>
        <trkpt lat="29.6844109" lon="104.7284535"><ele>491.29</ele><time>2026-01-30T23:02:35.000Z</time></trkpt>
        <trkpt lat="29.6843113" lon="104.7283986"><ele>490.41</ele><time>2026-01-30T23:02:45.000Z</time></trkpt>
        <trkpt lat="29.6842295" lon="104.7283276"><ele>489.32</ele><time>2026-01-30T23:02:53.000Z</time></trkpt>
        <trkpt lat="29.6841497" lon="104.7282407"><ele>487.85</ele><time>2026-01-30T23:03:03.000Z</time></trkpt>
        <trkpt lat="29.6840802" lon="104.7281541"><ele>486.59</ele><time>2026-01-30T23:03:17.000Z</time></trkpt>
        <trkpt lat="29.6840152" lon="104.7280772"><ele>485.58</ele><time>2026-01-30T23:03:29.000Z</time></trkpt>
        <trkpt lat="29.6839666" lon="104.7279906"><ele>484.83</ele><time>2026-01-30T23:03:39.000Z</time></trkpt>
        <trkpt lat="29.6839157" lon="104.7278918"><ele>484.63</ele><time>2026-01-30T23:03:49.000Z</time></trkpt>
        <trkpt lat="29.6838719" lon="104.727794"><ele>484.98</ele><time>2026-01-30T23:03:59.000Z</time></trkpt>
        <trkpt lat="29.6838061" lon="104.7277061"><ele>485.11</ele><time>2026-01-30T23:04:09.000Z</time></trkpt>
        <trkpt lat="29.6837382" lon="104.7276058"><ele>483.47</ele><time>2026-01-30T23:04:21.000Z</time></trkpt>
        <trkpt lat="29.6836782" lon="104.7275109"><ele>484.77</ele><time>2026-01-30T23:04:31.000Z</time></trkpt>
        <trkpt lat="29.6836279" lon="104.7274424"><ele>485.51</ele><time>2026-01-30T23:04:47.000Z</time></trkpt>
        <trkpt lat="29.6835557" lon="104.7273665"><ele>485.82</ele><time>2026-01-30T23:05:07.000Z</time></trkpt>
        <trkpt lat="29.6835151" lon="104.727325"><ele>485.96</ele><time>2026-01-30T23:05:15.000Z</time></trkpt>
        <trkpt lat="29.6834393" lon="104.7272929"><ele>485.82</ele><time>2026-01-30T23:06:31.000Z</time></trkpt>
        <trkpt lat="29.6833502" lon="104.7272308"><ele>485.53</ele><time>2026-01-30T23:06:43.000Z</time></trkpt>
        <trkpt lat="29.683261" lon="104.7272091"><ele>485.07</ele><time>2026-01-30T23:06:51.000Z</time></trkpt>
        <trkpt lat="29.6831634" lon="104.727174"><ele>484.86</ele><time>2026-01-30T23:07:01.000Z</time></trkpt>
        <trkpt lat="29.6830914" lon="104.7271063"><ele>484.89</ele><time>2026-01-30T23:07:11.000Z</time></trkpt>
        <trkpt lat="29.6830303" lon="104.7270149"><ele>484.67</ele><time>2026-01-30T23:07:21.000Z</time></trkpt>
        <trkpt lat="29.6830067" lon="104.7269"><ele>484.62</ele><time>2026-01-30T23:07:33.000Z</time></trkpt>
        <trkpt lat="29.6829918" lon="104.7267817"><ele>485.03</ele><time>2026-01-30T23:07:45.000Z</time></trkpt>
        <trkpt lat="29.6829324" lon="104.7266937"><ele>486.03</ele><time>2026-01-30T23:07:55.000Z</time></trkpt>
        <trkpt lat="29.6828408" lon="104.7266697"><ele>487.13</ele><time>2026-01-30T23:08:07.000Z</time></trkpt>
        <trkpt lat="29.6827442" lon="104.7266887"><ele>488.15</ele><time>2026-01-30T23:08:15.000Z</time></trkpt>
        <trkpt lat="29.6826464" lon="104.7267029"><ele>488.79</ele><time>2026-01-30T23:08:23.000Z</time></trkpt>
        <trkpt lat="29.6825521" lon="104.7266792"><ele>489.43</ele><time>2026-01-30T23:08:33.000Z</time></trkpt>
        <trkpt lat="29.6825099" lon="104.7265847"><ele>490.16</ele><time>2026-01-30T23:08:43.000Z</time></trkpt>
        <trkpt lat="29.682511" lon="104.7264713"><ele>490.57</ele><time>2026-01-30T23:08:53.000Z</time></trkpt>
        <trkpt lat="29.6825308" lon="104.7263405"><ele>490.74</ele><time>2026-01-30T23:09:03.000Z</time></trkpt>
        <trkpt lat="29.6825659" lon="104.7262145"><ele>490.47</ele><time>2026-01-30T23:09:15.000Z</time></trkpt>
        <trkpt lat="29.6825945" lon="104.7261019"><ele>490.16</ele><time>2026-01-30T23:09:27.000Z</time></trkpt>
        <trkpt lat="29.682595" lon="104.7259901"><ele>490.16</ele><time>2026-01-30T23:09:39.000Z</time></trkpt>
        <trkpt lat="29.682547" lon="104.7258892"><ele>490.7</ele><time>2026-01-30T23:09:51.000Z</time></trkpt>
        <trkpt lat="29.6825741" lon="104.7258071"><ele>491.96</ele><time>2026-01-30T23:10:05.000Z</time></trkpt>
        <trkpt lat="29.6826256" lon="104.7257243"><ele>493.79</ele><time>2026-01-30T23:10:19.000Z</time></trkpt>
        <trkpt lat="29.6827015" lon="104.7256485"><ele>495.02</ele><time>2026-01-30T23:10:35.000Z</time></trkpt>
        <trkpt lat="29.6827516" lon="104.7255582"><ele>495.46</ele><time>2026-01-30T23:10:57.000Z</time></trkpt>
        <trkpt lat="29.6827146" lon="104.7254718"><ele>494.4</ele><time>2026-01-30T23:11:21.000Z</time></trkpt>
        <trkpt lat="29.6826388" lon="104.725405"><ele>492.84</ele><time>2026-01-30T23:11:33.000Z</time></trkpt>
        <trkpt lat="29.6826839" lon="104.7253835"><ele>492.1</ele><time>2026-01-30T23:11:49.000Z</time></trkpt>
        <trkpt lat="29.6827787" lon="104.72537"><ele>491.31</ele><time>2026-01-30T23:11:59.000Z</time></trkpt>
        <trkpt lat="29.6828775" lon="104.7253982"><ele>489.88</ele><time>2026-01-30T23:12:07.000Z</time></trkpt>
        <trkpt lat="29.6829802" lon="104.7254285"><ele>487.75</ele><time>2026-01-30T23:12:15.000Z</time></trkpt>
        <trkpt lat="29.6830863" lon="104.7254366"><ele>484.95</ele><time>2026-01-30T23:12:26.000Z</time></trkpt>
        <trkpt lat="29.6831795" lon="104.725389"><ele>482.27</ele><time>2026-01-30T23:12:38.000Z</time></trkpt>
        <trkpt lat="29.6832598" lon="104.7253195"><ele>480.3</ele><time>2026-01-30T23:12:50.000Z</time></trkpt>
        <trkpt lat="29.6833389" lon="104.725247"><ele>480.22</ele><time>2026-01-30T23:12:58.000Z</time></trkpt>
        <trkpt lat="29.6834273" lon="104.7251724"><ele>480.5</ele><time>2026-01-30T23:13:08.000Z</time></trkpt>
        <trkpt lat="29.6835208" lon="104.7251547"><ele>480.46</ele><time>2026-01-30T23:13:18.000Z</time></trkpt>
        <trkpt lat="29.6835692" lon="104.7252393"><ele>480.86</ele><time>2026-01-30T23:13:30.000Z</time></trkpt>
        <trkpt lat="29.6836063" lon="104.7253529"><ele>481.18</ele><time>2026-01-30T23:13:40.000Z</time></trkpt>
        <trkpt lat="29.6836293" lon="104.7254716"><ele>480.77</ele><time>2026-01-30T23:13:52.000Z</time></trkpt>
        <trkpt lat="29.6836441" lon="104.7255849"><ele>479.98</ele><time>2026-01-30T23:14:04.000Z</time></trkpt>
        <trkpt lat="29.6837004" lon="104.7257017"><ele>479.43</ele><time>2026-01-30T23:15:28.000Z</time></trkpt>
        <trkpt lat="29.6837462" lon="104.7257957"><ele>481.73</ele><time>2026-01-30T23:15:38.000Z</time></trkpt>
        <trkpt lat="29.6838134" lon="104.7258657"><ele>483.37</ele><time>2026-01-30T23:16:12.000Z</time></trkpt>
        <trkpt lat="29.6839032" lon="104.7259034"><ele>483.68</ele><time>2026-01-30T23:16:24.000Z</time></trkpt>
        <trkpt lat="29.6839958" lon="104.7259336"><ele>484.83</ele><time>2026-01-30T23:16:36.000Z</time></trkpt>
        <trkpt lat="29.6840508" lon="104.7260289"><ele>487.05</ele><time>2026-01-30T23:18:00.000Z</time></trkpt>
        <trkpt lat="29.6840838" lon="104.7261252"><ele>489.08</ele><time>2026-01-30T23:18:12.000Z</time></trkpt>
        <trkpt lat="29.6841227" lon="104.7262195"><ele>490.06</ele><time>2026-01-30T23:18:22.000Z</time></trkpt>
        <trkpt lat="29.6841467" lon="104.7263239"><ele>491.26</ele><time>2026-01-30T23:19:20.000Z</time></trkpt>
        <trkpt lat="29.6841545" lon="104.7264427"><ele>492.14</ele><time>2026-01-30T23:19:32.000Z</time></trkpt>
        <trkpt lat="29.6841677" lon="104.726552"><ele>492.89</ele><time>2026-01-30T23:19:42.000Z</time></trkpt>
        <trkpt lat="29.6842129" lon="104.726655"><ele>493.38</ele><time>2026-01-30T23:19:54.000Z</time></trkpt>
        <trkpt lat="29.6842862" lon="104.7267254"><ele>493.62</ele><time>2026-01-30T23:20:04.000Z</time></trkpt>
        <trkpt lat="29.6843721" lon="104.7267721"><ele>493.54</ele><time>2026-01-30T23:20:12.000Z</time></trkpt>
        <trkpt lat="29.6844441" lon="104.7268465"><ele>493.53</ele><time>2026-01-30T23:20:22.000Z</time></trkpt>
        <trkpt lat="29.6844791" lon="104.7269428"><ele>493.67</ele><time>2026-01-30T23:20:32.000Z</time></trkpt>
        <trkpt lat="29.6845387" lon="104.7270394"><ele>493.37</ele><time>2026-01-30T23:20:42.000Z</time></trkpt>
        <trkpt lat="29.6846132" lon="104.7271221"><ele>493.19</ele><time>2026-01-30T23:20:54.000Z</time></trkpt>
        <trkpt lat="29.6846953" lon="104.7271761"><ele>493.22</ele><time>2026-01-30T23:21:04.000Z</time></trkpt>
        <trkpt lat="29.6847856" lon="104.7272122"><ele>493.41</ele><time>2026-01-30T23:21:16.000Z</time></trkpt>
        <trkpt lat="29.6848787" lon="104.7272156"><ele>493.48</ele><time>2026-01-30T23:21:30.000Z</time></trkpt>
        <trkpt lat="29.6849809" lon="104.7272228"><ele>493.47</ele><time>2026-01-30T23:21:44.000Z</time></trkpt>
        <trkpt lat="29.6850804" lon="104.727216"><ele>494.33</ele><time>2026-01-30T23:21:58.000Z</time></trkpt>
        <trkpt lat="29.6851714" lon="104.7272378"><ele>495.37</ele><time>2026-01-30T23:22:16.000Z</time></trkpt>
        <trkpt lat="29.685266" lon="104.7272541"><ele>496.5</ele><time>2026-01-30T23:22:34.000Z</time></trkpt>
        <trkpt lat="29.6853428" lon="104.7273097"><ele>497.84</ele><time>2026-01-30T23:22:48.000Z</time></trkpt>
        <trkpt lat="29.6853428" lon="104.7273097"><ele>497.84</ele><time>2026-01-30T23:31:04.000Z</time></trkpt>
      </trkseg>
  </trk>
</gpx>